<?xml version="1.0" encoding="UTF-8" standalone="no" ?>
<gpx xmlns="http://www.topografix.com/GPX/1/1" xmlns:xsi="http://www.w3.org/2001/XMLSchema-instance" xsi:schemaLocation="http://www.topografix.com/GPX/1/1 http://www.topografix.com/GPX/1/1/gpx.xsd" version="1.1" creator="VisuGPX - https://www.visugpx.com">
  <metadata>
    <name>2-1 Raposeira- AljezurA 40 km</name>
    <desc><![CDATA[Attention part de Vila Do Bispo - Aljezur Château Eurovélo]]></desc>
  </metadata>
  <trk>
    <name><![CDATA[2-1 Raposeira- AljezurA 40 km_1]]></name>
    <trkseg>
      <trkpt lat="37.08462" lon="-8.91106">
        <ele>82</ele>
        <time>2010-01-01T01:08:06Z</time>
      </trkpt>
      <trkpt lat="37.08484" lon="-8.9111">
        <ele>82</ele>
        <time>2010-01-01T01:08:14Z</time>
      </trkpt>
      <trkpt lat="37.08505" lon="-8.91114">
        <ele>83</ele>
        <time>2010-01-01T01:08:23Z</time>
      </trkpt>
      <trkpt lat="37.08526" lon="-8.91118">
        <ele>84</ele>
        <time>2010-01-01T01:08:31Z</time>
      </trkpt>
      <trkpt lat="37.0855" lon="-8.91121">
        <ele>86</ele>
        <time>2010-01-01T01:08:41Z</time>
      </trkpt>
      <trkpt lat="37.08573" lon="-8.91123">
        <ele>87</ele>
        <time>2010-01-01T01:08:51Z</time>
      </trkpt>
      <trkpt lat="37.08597" lon="-8.91126">
        <ele>89</ele>
        <time>2010-01-01T01:09:00Z</time>
      </trkpt>
      <trkpt lat="37.0862" lon="-8.91128">
        <ele>92</ele>
        <time>2010-01-01T01:09:09Z</time>
      </trkpt>
      <trkpt lat="37.08643" lon="-8.91131">
        <ele>95</ele>
        <time>2010-01-01T01:09:19Z</time>
      </trkpt>
      <trkpt lat="37.08666" lon="-8.91134">
        <ele>98</ele>
        <time>2010-01-01T01:09:28Z</time>
      </trkpt>
      <trkpt lat="37.0869" lon="-8.91136">
        <ele>101</ele>
        <time>2010-01-01T01:09:37Z</time>
      </trkpt>
      <trkpt lat="37.08727" lon="-8.91134">
        <ele>104</ele>
        <time>2010-01-01T01:09:52Z</time>
      </trkpt>
      <trkpt lat="37.08747" lon="-8.91137">
        <ele>104</ele>
        <time>2010-01-01T01:10:00Z</time>
      </trkpt>
      <trkpt lat="37.08767" lon="-8.91141">
        <ele>104</ele>
        <time>2010-01-01T01:10:08Z</time>
      </trkpt>
      <trkpt lat="37.08787" lon="-8.91145">
        <ele>105</ele>
        <time>2010-01-01T01:10:17Z</time>
      </trkpt>
      <trkpt lat="37.08807" lon="-8.91148">
        <ele>107</ele>
        <time>2010-01-01T01:10:25Z</time>
      </trkpt>
      <trkpt lat="37.08845" lon="-8.91156">
        <ele>111</ele>
        <time>2010-01-01T01:10:40Z</time>
      </trkpt>
      <trkpt lat="37.08867" lon="-8.91161">
        <ele>113</ele>
        <time>2010-01-01T01:10:49Z</time>
      </trkpt>
      <trkpt lat="37.08889" lon="-8.91166">
        <ele>115</ele>
        <time>2010-01-01T01:10:58Z</time>
      </trkpt>
      <trkpt lat="37.08911" lon="-8.91171">
        <ele>117</ele>
        <time>2010-01-01T01:11:07Z</time>
      </trkpt>
      <trkpt lat="37.08933" lon="-8.91176">
        <ele>117</ele>
        <time>2010-01-01T01:11:16Z</time>
      </trkpt>
      <trkpt lat="37.08977" lon="-8.91185">
        <ele>117</ele>
        <time>2010-01-01T01:11:33Z</time>
      </trkpt>
      <trkpt lat="37.08998" lon="-8.9119">
        <ele>117</ele>
        <time>2010-01-01T01:11:42Z</time>
      </trkpt>
      <trkpt lat="37.0902" lon="-8.91195">
        <ele>117</ele>
        <time>2010-01-01T01:11:51Z</time>
      </trkpt>
      <trkpt lat="37.09042" lon="-8.912">
        <ele>117</ele>
        <time>2010-01-01T01:12:00Z</time>
      </trkpt>
      <trkpt lat="37.09064" lon="-8.91205">
        <ele>118</ele>
        <time>2010-01-01T01:12:09Z</time>
      </trkpt>
      <trkpt lat="37.09086" lon="-8.9121">
        <ele>119</ele>
        <time>2010-01-01T01:12:18Z</time>
      </trkpt>
      <trkpt lat="37.09108" lon="-8.91215">
        <ele>119</ele>
        <time>2010-01-01T01:12:27Z</time>
      </trkpt>
      <trkpt lat="37.0913" lon="-8.9122">
        <ele>119</ele>
        <time>2010-01-01T01:12:36Z</time>
      </trkpt>
      <trkpt lat="37.09152" lon="-8.91225">
        <ele>119</ele>
        <time>2010-01-01T01:12:45Z</time>
      </trkpt>
      <trkpt lat="37.09177" lon="-8.91228">
        <ele>120</ele>
        <time>2010-01-01T01:12:55Z</time>
      </trkpt>
      <trkpt lat="37.09223" lon="-8.91233">
        <ele>120</ele>
        <time>2010-01-01T01:13:13Z</time>
      </trkpt>
      <trkpt lat="37.09246" lon="-8.91235">
        <ele>121</ele>
        <time>2010-01-01T01:13:23Z</time>
      </trkpt>
      <trkpt lat="37.09269" lon="-8.91238">
        <ele>121</ele>
        <time>2010-01-01T01:13:32Z</time>
      </trkpt>
      <trkpt lat="37.09313" lon="-8.91234">
        <ele>122</ele>
        <time>2010-01-01T01:13:49Z</time>
      </trkpt>
      <trkpt lat="37.09334" lon="-8.91228">
        <ele>123</ele>
        <time>2010-01-01T01:13:58Z</time>
      </trkpt>
      <trkpt lat="37.09356" lon="-8.91221">
        <ele>123</ele>
        <time>2010-01-01T01:14:07Z</time>
      </trkpt>
      <trkpt lat="37.09378" lon="-8.91215">
        <ele>123</ele>
        <time>2010-01-01T01:14:16Z</time>
      </trkpt>
      <trkpt lat="37.09421" lon="-8.91203">
        <ele>121</ele>
        <time>2010-01-01T01:14:34Z</time>
      </trkpt>
      <trkpt lat="37.09442" lon="-8.91196">
        <ele>121</ele>
        <time>2010-01-01T01:14:43Z</time>
      </trkpt>
      <trkpt lat="37.09464" lon="-8.9119">
        <ele>120</ele>
        <time>2010-01-01T01:14:52Z</time>
      </trkpt>
      <trkpt lat="37.09486" lon="-8.91184">
        <ele>120</ele>
        <time>2010-01-01T01:15:00Z</time>
      </trkpt>
      <trkpt lat="37.09507" lon="-8.91178">
        <ele>120</ele>
        <time>2010-01-01T01:15:09Z</time>
      </trkpt>
      <trkpt lat="37.09551" lon="-8.91165">
        <ele>121</ele>
        <time>2010-01-01T01:15:27Z</time>
      </trkpt>
      <trkpt lat="37.09572" lon="-8.91159">
        <ele>121</ele>
        <time>2010-01-01T01:15:36Z</time>
      </trkpt>
      <trkpt lat="37.09594" lon="-8.91153">
        <ele>121</ele>
        <time>2010-01-01T01:15:45Z</time>
      </trkpt>
      <trkpt lat="37.09616" lon="-8.91147">
        <ele>121</ele>
        <time>2010-01-01T01:15:54Z</time>
      </trkpt>
      <trkpt lat="37.09637" lon="-8.91141">
        <ele>121</ele>
        <time>2010-01-01T01:16:03Z</time>
      </trkpt>
      <trkpt lat="37.09659" lon="-8.91134">
        <ele>121</ele>
        <time>2010-01-01T01:16:12Z</time>
      </trkpt>
      <trkpt lat="37.09682" lon="-8.91125">
        <ele>122</ele>
        <time>2010-01-01T01:16:21Z</time>
      </trkpt>
      <trkpt lat="37.09727" lon="-8.91108">
        <ele>121</ele>
        <time>2010-01-01T01:16:40Z</time>
      </trkpt>
      <trkpt lat="37.09794" lon="-8.91081">
        <ele>122</ele>
        <time>2010-01-01T01:17:08Z</time>
      </trkpt>
      <trkpt lat="37.09839" lon="-8.91064">
        <ele>123</ele>
        <time>2010-01-01T01:17:27Z</time>
      </trkpt>
      <trkpt lat="37.09861" lon="-8.91055">
        <ele>123</ele>
        <time>2010-01-01T01:17:36Z</time>
      </trkpt>
      <trkpt lat="37.09906" lon="-8.91037">
        <ele>125</ele>
        <time>2010-01-01T01:17:55Z</time>
      </trkpt>
      <trkpt lat="37.09928" lon="-8.91029">
        <ele>126</ele>
        <time>2010-01-01T01:18:05Z</time>
      </trkpt>
      <trkpt lat="37.09951" lon="-8.9102">
        <ele>126</ele>
        <time>2010-01-01T01:18:14Z</time>
      </trkpt>
      <trkpt lat="37.09973" lon="-8.91011">
        <ele>126</ele>
        <time>2010-01-01T01:18:23Z</time>
      </trkpt>
      <trkpt lat="37.09995" lon="-8.91002">
        <ele>125</ele>
        <time>2010-01-01T01:18:33Z</time>
      </trkpt>
      <trkpt lat="37.10031" lon="-8.90986">
        <ele>124</ele>
        <time>2010-01-01T01:18:48Z</time>
      </trkpt>
      <trkpt lat="37.10071" lon="-8.90965">
        <ele>124</ele>
        <time>2010-01-01T01:19:05Z</time>
      </trkpt>
      <trkpt lat="37.10091" lon="-8.90955">
        <ele>124</ele>
        <time>2010-01-01T01:19:14Z</time>
      </trkpt>
      <trkpt lat="37.10111" lon="-8.90945">
        <ele>124</ele>
        <time>2010-01-01T01:19:22Z</time>
      </trkpt>
      <trkpt lat="37.10131" lon="-8.90934">
        <ele>124</ele>
        <time>2010-01-01T01:19:31Z</time>
      </trkpt>
      <trkpt lat="37.10151" lon="-8.90924">
        <ele>125</ele>
        <time>2010-01-01T01:19:40Z</time>
      </trkpt>
      <trkpt lat="37.10171" lon="-8.90914">
        <ele>124</ele>
        <time>2010-01-01T01:19:48Z</time>
      </trkpt>
      <trkpt lat="37.10198" lon="-8.90892">
        <ele>123</ele>
        <time>2010-01-01T01:20:01Z</time>
      </trkpt>
      <trkpt lat="37.10216" lon="-8.90875">
        <ele>122</ele>
        <time>2010-01-01T01:20:10Z</time>
      </trkpt>
      <trkpt lat="37.10235" lon="-8.90858">
        <ele>121</ele>
        <time>2010-01-01T01:20:20Z</time>
      </trkpt>
      <trkpt lat="37.10253" lon="-8.90841">
        <ele>121</ele>
        <time>2010-01-01T01:20:29Z</time>
      </trkpt>
      <trkpt lat="37.10271" lon="-8.90823">
        <ele>121</ele>
        <time>2010-01-01T01:20:38Z</time>
      </trkpt>
      <trkpt lat="37.10289" lon="-8.90806">
        <ele>122</ele>
        <time>2010-01-01T01:20:47Z</time>
      </trkpt>
      <trkpt lat="37.10308" lon="-8.90789">
        <ele>124</ele>
        <time>2010-01-01T01:20:56Z</time>
      </trkpt>
      <trkpt lat="37.10326" lon="-8.90772">
        <ele>125</ele>
        <time>2010-01-01T01:21:05Z</time>
      </trkpt>
      <trkpt lat="37.10344" lon="-8.90755">
        <ele>126</ele>
        <time>2010-01-01T01:21:14Z</time>
      </trkpt>
      <trkpt lat="37.10362" lon="-8.90738">
        <ele>126</ele>
        <time>2010-01-01T01:21:23Z</time>
      </trkpt>
      <trkpt lat="37.10381" lon="-8.90721">
        <ele>126</ele>
        <time>2010-01-01T01:21:33Z</time>
      </trkpt>
      <trkpt lat="37.10399" lon="-8.90704">
        <ele>127</ele>
        <time>2010-01-01T01:21:42Z</time>
      </trkpt>
      <trkpt lat="37.10417" lon="-8.90687">
        <ele>127</ele>
        <time>2010-01-01T01:21:51Z</time>
      </trkpt>
      <trkpt lat="37.10453" lon="-8.90652">
        <ele>127</ele>
        <time>2010-01-01T01:22:09Z</time>
      </trkpt>
      <trkpt lat="37.10475" lon="-8.90632">
        <ele>127</ele>
        <time>2010-01-01T01:22:20Z</time>
      </trkpt>
      <trkpt lat="37.10493" lon="-8.90614">
        <ele>127</ele>
        <time>2010-01-01T01:22:29Z</time>
      </trkpt>
      <trkpt lat="37.10512" lon="-8.90596">
        <ele>127</ele>
        <time>2010-01-01T01:22:38Z</time>
      </trkpt>
      <trkpt lat="37.1053" lon="-8.90578">
        <ele>127</ele>
        <time>2010-01-01T01:22:48Z</time>
      </trkpt>
      <trkpt lat="37.10549" lon="-8.9056">
        <ele>127</ele>
        <time>2010-01-01T01:22:57Z</time>
      </trkpt>
      <trkpt lat="37.10567" lon="-8.90543">
        <ele>128</ele>
        <time>2010-01-01T01:23:07Z</time>
      </trkpt>
      <trkpt lat="37.10586" lon="-8.90525">
        <ele>128</ele>
        <time>2010-01-01T01:23:16Z</time>
      </trkpt>
      <trkpt lat="37.10623" lon="-8.90489">
        <ele>128</ele>
        <time>2010-01-01T01:23:35Z</time>
      </trkpt>
      <trkpt lat="37.10642" lon="-8.90471">
        <ele>129</ele>
        <time>2010-01-01T01:23:44Z</time>
      </trkpt>
      <trkpt lat="37.1066" lon="-8.90453">
        <ele>129</ele>
        <time>2010-01-01T01:23:53Z</time>
      </trkpt>
      <trkpt lat="37.10697" lon="-8.90417">
        <ele>129</ele>
        <time>2010-01-01T01:24:12Z</time>
      </trkpt>
      <trkpt lat="37.10716" lon="-8.90399">
        <ele>128</ele>
        <time>2010-01-01T01:24:22Z</time>
      </trkpt>
      <trkpt lat="37.10735" lon="-8.90381">
        <ele>127</ele>
        <time>2010-01-01T01:24:31Z</time>
      </trkpt>
      <trkpt lat="37.10772" lon="-8.90346">
        <ele>125</ele>
        <time>2010-01-01T01:24:50Z</time>
      </trkpt>
      <trkpt lat="37.1079" lon="-8.90328">
        <ele>125</ele>
        <time>2010-01-01T01:24:59Z</time>
      </trkpt>
      <trkpt lat="37.10809" lon="-8.9031">
        <ele>125</ele>
        <time>2010-01-01T01:25:08Z</time>
      </trkpt>
      <trkpt lat="37.10828" lon="-8.90292">
        <ele>124</ele>
        <time>2010-01-01T01:25:18Z</time>
      </trkpt>
      <trkpt lat="37.10846" lon="-8.90274">
        <ele>123</ele>
        <time>2010-01-01T01:25:27Z</time>
      </trkpt>
      <trkpt lat="37.10865" lon="-8.90256">
        <ele>122</ele>
        <time>2010-01-01T01:25:37Z</time>
      </trkpt>
      <trkpt lat="37.10883" lon="-8.90238">
        <ele>123</ele>
        <time>2010-01-01T01:25:46Z</time>
      </trkpt>
      <trkpt lat="37.10902" lon="-8.9022">
        <ele>123</ele>
        <time>2010-01-01T01:25:55Z</time>
      </trkpt>
      <trkpt lat="37.1092" lon="-8.90202">
        <ele>124</ele>
        <time>2010-01-01T01:26:05Z</time>
      </trkpt>
      <trkpt lat="37.10939" lon="-8.90184">
        <ele>123</ele>
        <time>2010-01-01T01:26:14Z</time>
      </trkpt>
      <trkpt lat="37.10958" lon="-8.90167">
        <ele>123</ele>
        <time>2010-01-01T01:26:23Z</time>
      </trkpt>
      <trkpt lat="37.10976" lon="-8.90149">
        <ele>125</ele>
        <time>2010-01-01T01:26:33Z</time>
      </trkpt>
      <trkpt lat="37.10995" lon="-8.90131">
        <ele>126</ele>
        <time>2010-01-01T01:26:42Z</time>
      </trkpt>
      <trkpt lat="37.11013" lon="-8.90113">
        <ele>128</ele>
        <time>2010-01-01T01:26:52Z</time>
      </trkpt>
      <trkpt lat="37.11032" lon="-8.90095">
        <ele>130</ele>
        <time>2010-01-01T01:27:01Z</time>
      </trkpt>
      <trkpt lat="37.1105" lon="-8.90077">
        <ele>131</ele>
        <time>2010-01-01T01:27:10Z</time>
      </trkpt>
      <trkpt lat="37.11088" lon="-8.90041">
        <ele>132</ele>
        <time>2010-01-01T01:27:29Z</time>
      </trkpt>
      <trkpt lat="37.11106" lon="-8.90023">
        <ele>133</ele>
        <time>2010-01-01T01:27:39Z</time>
      </trkpt>
      <trkpt lat="37.11125" lon="-8.90005">
        <ele>133</ele>
        <time>2010-01-01T01:27:48Z</time>
      </trkpt>
      <trkpt lat="37.11143" lon="-8.89988">
        <ele>133</ele>
        <time>2010-01-01T01:27:57Z</time>
      </trkpt>
      <trkpt lat="37.1118" lon="-8.89952">
        <ele>130</ele>
        <time>2010-01-01T01:28:16Z</time>
      </trkpt>
      <trkpt lat="37.11199" lon="-8.89934">
        <ele>129</ele>
        <time>2010-01-01T01:28:25Z</time>
      </trkpt>
      <trkpt lat="37.11218" lon="-8.89916">
        <ele>130</ele>
        <time>2010-01-01T01:28:35Z</time>
      </trkpt>
      <trkpt lat="37.11236" lon="-8.89898">
        <ele>131</ele>
        <time>2010-01-01T01:28:44Z</time>
      </trkpt>
      <trkpt lat="37.11255" lon="-8.8988">
        <ele>131</ele>
        <time>2010-01-01T01:28:54Z</time>
      </trkpt>
      <trkpt lat="37.11279" lon="-8.89857">
        <ele>130</ele>
        <time>2010-01-01T01:29:06Z</time>
      </trkpt>
      <trkpt lat="37.11297" lon="-8.89839">
        <ele>130</ele>
        <time>2010-01-01T01:29:15Z</time>
      </trkpt>
      <trkpt lat="37.11316" lon="-8.89822">
        <ele>131</ele>
        <time>2010-01-01T01:29:24Z</time>
      </trkpt>
      <trkpt lat="37.11353" lon="-8.89786">
        <ele>133</ele>
        <time>2010-01-01T01:29:43Z</time>
      </trkpt>
      <trkpt lat="37.1139" lon="-8.89751">
        <ele>134</ele>
        <time>2010-01-01T01:30:02Z</time>
      </trkpt>
      <trkpt lat="37.11427" lon="-8.89715">
        <ele>134</ele>
        <time>2010-01-01T01:30:20Z</time>
      </trkpt>
      <trkpt lat="37.11482" lon="-8.89662">
        <ele>134</ele>
        <time>2010-01-01T01:30:48Z</time>
      </trkpt>
      <trkpt lat="37.11519" lon="-8.89626">
        <ele>135</ele>
        <time>2010-01-01T01:31:07Z</time>
      </trkpt>
      <trkpt lat="37.11556" lon="-8.89591">
        <ele>137</ele>
        <time>2010-01-01T01:31:26Z</time>
      </trkpt>
      <trkpt lat="37.11612" lon="-8.89538">
        <ele>139</ele>
        <time>2010-01-01T01:31:54Z</time>
      </trkpt>
      <trkpt lat="37.11686" lon="-8.89466">
        <ele>137</ele>
        <time>2010-01-01T01:32:31Z</time>
      </trkpt>
      <trkpt lat="37.11723" lon="-8.89431">
        <ele>137</ele>
        <time>2010-01-01T01:32:50Z</time>
      </trkpt>
      <trkpt lat="37.11797" lon="-8.8936">
        <ele>136</ele>
        <time>2010-01-01T01:33:27Z</time>
      </trkpt>
      <trkpt lat="37.11871" lon="-8.89289">
        <ele>138</ele>
        <time>2010-01-01T01:34:04Z</time>
      </trkpt>
      <trkpt lat="37.11908" lon="-8.89253">
        <ele>138</ele>
        <time>2010-01-01T01:34:23Z</time>
      </trkpt>
      <trkpt lat="37.11964" lon="-8.89197">
        <ele>139</ele>
        <time>2010-01-01T01:34:51Z</time>
      </trkpt>
      <trkpt lat="37.12007" lon="-8.89153">
        <ele>138</ele>
        <time>2010-01-01T01:35:14Z</time>
      </trkpt>
      <trkpt lat="37.1206" lon="-8.89098">
        <ele>135</ele>
        <time>2010-01-01T01:35:41Z</time>
      </trkpt>
      <trkpt lat="37.12114" lon="-8.89043">
        <ele>135</ele>
        <time>2010-01-01T01:36:09Z</time>
      </trkpt>
      <trkpt lat="37.12203" lon="-8.88952">
        <ele>138</ele>
        <time>2010-01-01T01:36:55Z</time>
      </trkpt>
      <trkpt lat="37.12256" lon="-8.88897">
        <ele>138</ele>
        <time>2010-01-01T01:37:23Z</time>
      </trkpt>
      <trkpt lat="37.12309" lon="-8.88842">
        <ele>136</ele>
        <time>2010-01-01T01:37:50Z</time>
      </trkpt>
      <trkpt lat="37.12356" lon="-8.88793">
        <ele>135</ele>
        <time>2010-01-01T01:38:14Z</time>
      </trkpt>
      <trkpt lat="37.12389" lon="-8.88755">
        <ele>135</ele>
        <time>2010-01-01T01:38:32Z</time>
      </trkpt>
      <trkpt lat="37.12422" lon="-8.88718">
        <ele>134</ele>
        <time>2010-01-01T01:38:50Z</time>
      </trkpt>
      <trkpt lat="37.12456" lon="-8.8868">
        <ele>133</ele>
        <time>2010-01-01T01:39:08Z</time>
      </trkpt>
      <trkpt lat="37.12489" lon="-8.88642">
        <ele>130</ele>
        <time>2010-01-01T01:39:26Z</time>
      </trkpt>
      <trkpt lat="37.12506" lon="-8.88624">
        <ele>130</ele>
        <time>2010-01-01T01:39:35Z</time>
      </trkpt>
      <trkpt lat="37.12522" lon="-8.88605">
        <ele>130</ele>
        <time>2010-01-01T01:39:44Z</time>
      </trkpt>
      <trkpt lat="37.12572" lon="-8.88548">
        <ele>129</ele>
        <time>2010-01-01T01:40:11Z</time>
      </trkpt>
      <trkpt lat="37.1262" lon="-8.88509">
        <ele>131</ele>
        <time>2010-01-01T01:40:34Z</time>
      </trkpt>
      <trkpt lat="37.12727" lon="-8.88436">
        <ele>133</ele>
        <time>2010-01-01T01:41:23Z</time>
      </trkpt>
      <trkpt lat="37.12831" lon="-8.88371">
        <ele>137</ele>
        <time>2010-01-01T01:42:09Z</time>
      </trkpt>
      <trkpt lat="37.12893" lon="-8.88332">
        <ele>138</ele>
        <time>2010-01-01T01:42:37Z</time>
      </trkpt>
      <trkpt lat="37.12976" lon="-8.8828">
        <ele>138</ele>
        <time>2010-01-01T01:43:14Z</time>
      </trkpt>
      <trkpt lat="37.13059" lon="-8.88228">
        <ele>138</ele>
        <time>2010-01-01T01:43:51Z</time>
      </trkpt>
      <trkpt lat="37.13162" lon="-8.88163">
        <ele>136</ele>
        <time>2010-01-01T01:44:38Z</time>
      </trkpt>
      <trkpt lat="37.13266" lon="-8.88098">
        <ele>136</ele>
        <time>2010-01-01T01:45:24Z</time>
      </trkpt>
      <trkpt lat="37.13369" lon="-8.88033">
        <ele>136</ele>
        <time>2010-01-01T01:46:10Z</time>
      </trkpt>
      <trkpt lat="37.13431" lon="-8.87994">
        <ele>136</ele>
        <time>2010-01-01T01:46:38Z</time>
      </trkpt>
      <trkpt lat="37.13514" lon="-8.87942">
        <ele>133</ele>
        <time>2010-01-01T01:47:15Z</time>
      </trkpt>
      <trkpt lat="37.13618" lon="-8.87877">
        <ele>129</ele>
        <time>2010-01-01T01:48:02Z</time>
      </trkpt>
      <trkpt lat="37.1373" lon="-8.87806">
        <ele>126</ele>
        <time>2010-01-01T01:48:52Z</time>
      </trkpt>
      <trkpt lat="37.13792" lon="-8.87768">
        <ele>130</ele>
        <time>2010-01-01T01:49:20Z</time>
      </trkpt>
      <trkpt lat="37.13854" lon="-8.87729">
        <ele>127</ele>
        <time>2010-01-01T01:49:47Z</time>
      </trkpt>
      <trkpt lat="37.13916" lon="-8.8769">
        <ele>125</ele>
        <time>2010-01-01T01:50:15Z</time>
      </trkpt>
      <trkpt lat="37.14033" lon="-8.87617">
        <ele>122</ele>
        <time>2010-01-01T01:51:07Z</time>
      </trkpt>
      <trkpt lat="37.14103" lon="-8.87574">
        <ele>123</ele>
        <time>2010-01-01T01:51:38Z</time>
      </trkpt>
      <trkpt lat="37.14198" lon="-8.87519">
        <ele>124</ele>
        <time>2010-01-01T01:52:20Z</time>
      </trkpt>
      <trkpt lat="37.1424" lon="-8.87502">
        <ele>126</ele>
        <time>2010-01-01T01:52:38Z</time>
      </trkpt>
      <trkpt lat="37.14324" lon="-8.87466">
        <ele>129</ele>
        <time>2010-01-01T01:53:14Z</time>
      </trkpt>
      <trkpt lat="37.14387" lon="-8.8744">
        <ele>126</ele>
        <time>2010-01-01T01:53:40Z</time>
      </trkpt>
      <trkpt lat="37.14479" lon="-8.87398">
        <ele>126</ele>
        <time>2010-01-01T01:54:20Z</time>
      </trkpt>
      <trkpt lat="37.14521" lon="-8.87379">
        <ele>127</ele>
        <time>2010-01-01T01:54:37Z</time>
      </trkpt>
      <trkpt lat="37.14542" lon="-8.87369">
        <ele>127</ele>
        <time>2010-01-01T01:54:46Z</time>
      </trkpt>
      <trkpt lat="37.14573" lon="-8.87347">
        <ele>127</ele>
        <time>2010-01-01T01:55:01Z</time>
      </trkpt>
      <trkpt lat="37.14607" lon="-8.87315">
        <ele>127</ele>
        <time>2010-01-01T01:55:18Z</time>
      </trkpt>
      <trkpt lat="37.14659" lon="-8.87267">
        <ele>125</ele>
        <time>2010-01-01T01:55:43Z</time>
      </trkpt>
      <trkpt lat="37.14676" lon="-8.87252">
        <ele>126</ele>
        <time>2010-01-01T01:55:52Z</time>
      </trkpt>
      <trkpt lat="37.14739" lon="-8.87204">
        <ele>130</ele>
        <time>2010-01-01T01:56:21Z</time>
      </trkpt>
      <trkpt lat="37.14797" lon="-8.87161">
        <ele>130</ele>
        <time>2010-01-01T01:56:48Z</time>
      </trkpt>
      <trkpt lat="37.14831" lon="-8.87153">
        <ele>130</ele>
        <time>2010-01-01T01:57:02Z</time>
      </trkpt>
      <trkpt lat="37.14899" lon="-8.87154">
        <ele>132</ele>
        <time>2010-01-01T01:57:29Z</time>
      </trkpt>
      <trkpt lat="37.14944" lon="-8.87154">
        <ele>131</ele>
        <time>2010-01-01T01:57:47Z</time>
      </trkpt>
      <trkpt lat="37.15057" lon="-8.87155">
        <ele>125</ele>
        <time>2010-01-01T01:58:33Z</time>
      </trkpt>
      <trkpt lat="37.15148" lon="-8.87156">
        <ele>122</ele>
        <time>2010-01-01T01:59:09Z</time>
      </trkpt>
      <trkpt lat="37.15182" lon="-8.87139">
        <ele>121</ele>
        <time>2010-01-01T01:59:24Z</time>
      </trkpt>
      <trkpt lat="37.15214" lon="-8.87105">
        <ele>119</ele>
        <time>2010-01-01T01:59:40Z</time>
      </trkpt>
      <trkpt lat="37.15279" lon="-8.87038">
        <ele>119</ele>
        <time>2010-01-01T02:00:14Z</time>
      </trkpt>
      <trkpt lat="37.15293" lon="-8.87007">
        <ele>119</ele>
        <time>2010-01-01T02:00:25Z</time>
      </trkpt>
      <trkpt lat="37.15319" lon="-8.86932">
        <ele>119</ele>
        <time>2010-01-01T02:00:51Z</time>
      </trkpt>
      <trkpt lat="37.1534" lon="-8.86906">
        <ele>122</ele>
        <time>2010-01-01T02:01:03Z</time>
      </trkpt>
      <trkpt lat="37.15356" lon="-8.86895">
        <ele>124</ele>
        <time>2010-01-01T02:01:11Z</time>
      </trkpt>
      <trkpt lat="37.1539" lon="-8.86891">
        <ele>125</ele>
        <time>2010-01-01T02:01:24Z</time>
      </trkpt>
      <trkpt lat="37.15432" lon="-8.869">
        <ele>123</ele>
        <time>2010-01-01T02:01:41Z</time>
      </trkpt>
      <trkpt lat="37.15596" lon="-8.86933">
        <ele>115</ele>
        <time>2010-01-01T02:02:48Z</time>
      </trkpt>
      <trkpt lat="37.15677" lon="-8.86946">
        <ele>120</ele>
        <time>2010-01-01T02:03:20Z</time>
      </trkpt>
      <trkpt lat="37.15727" lon="-8.86937">
        <ele>121</ele>
        <time>2010-01-01T02:03:41Z</time>
      </trkpt>
      <trkpt lat="37.15793" lon="-8.86923">
        <ele>120</ele>
        <time>2010-01-01T02:04:07Z</time>
      </trkpt>
      <trkpt lat="37.15833" lon="-8.86928">
        <ele>116</ele>
        <time>2010-01-01T02:04:24Z</time>
      </trkpt>
      <trkpt lat="37.15869" lon="-8.86947">
        <ele>115</ele>
        <time>2010-01-01T02:04:39Z</time>
      </trkpt>
      <trkpt lat="37.15924" lon="-8.86977">
        <ele>112</ele>
        <time>2010-01-01T02:05:03Z</time>
      </trkpt>
      <trkpt lat="37.16" lon="-8.87048">
        <ele>109</ele>
        <time>2010-01-01T02:05:41Z</time>
      </trkpt>
      <trkpt lat="37.16017" lon="-8.87065">
        <ele>107</ele>
        <time>2010-01-01T02:05:50Z</time>
      </trkpt>
      <trkpt lat="37.16041" lon="-8.87099">
        <ele>106</ele>
        <time>2010-01-01T02:06:04Z</time>
      </trkpt>
      <trkpt lat="37.16126" lon="-8.87258">
        <ele>100</ele>
        <time>2010-01-01T02:07:05Z</time>
      </trkpt>
      <trkpt lat="37.16152" lon="-8.87292">
        <ele>99</ele>
        <time>2010-01-01T02:07:20Z</time>
      </trkpt>
      <trkpt lat="37.16181" lon="-8.87319">
        <ele>98</ele>
        <time>2010-01-01T02:07:35Z</time>
      </trkpt>
      <trkpt lat="37.16213" lon="-8.8734">
        <ele>94</ele>
        <time>2010-01-01T02:07:50Z</time>
      </trkpt>
      <trkpt lat="37.1633" lon="-8.87385">
        <ele>95</ele>
        <time>2010-01-01T02:08:39Z</time>
      </trkpt>
      <trkpt lat="37.16393" lon="-8.87464">
        <ele>94</ele>
        <time>2010-01-01T02:09:14Z</time>
      </trkpt>
      <trkpt lat="37.1646" lon="-8.87557">
        <ele>88</ele>
        <time>2010-01-01T02:09:54Z</time>
      </trkpt>
      <trkpt lat="37.16486" lon="-8.87566">
        <ele>85</ele>
        <time>2010-01-01T02:10:05Z</time>
      </trkpt>
      <trkpt lat="37.16551" lon="-8.87579">
        <ele>79</ele>
        <time>2010-01-01T02:10:31Z</time>
      </trkpt>
      <trkpt lat="37.16601" lon="-8.87603">
        <ele>81</ele>
        <time>2010-01-01T02:10:53Z</time>
      </trkpt>
      <trkpt lat="37.16639" lon="-8.87626">
        <ele>79</ele>
        <time>2010-01-01T02:11:09Z</time>
      </trkpt>
      <trkpt lat="37.1667" lon="-8.87654">
        <ele>77</ele>
        <time>2010-01-01T02:11:25Z</time>
      </trkpt>
      <trkpt lat="37.16713" lon="-8.87707">
        <ele>76</ele>
        <time>2010-01-01T02:11:49Z</time>
      </trkpt>
      <trkpt lat="37.16778" lon="-8.87789">
        <ele>74</ele>
        <time>2010-01-01T02:12:26Z</time>
      </trkpt>
      <trkpt lat="37.1681" lon="-8.8783">
        <ele>72</ele>
        <time>2010-01-01T02:12:44Z</time>
      </trkpt>
      <trkpt lat="37.16856" lon="-8.87892">
        <ele>74</ele>
        <time>2010-01-01T02:13:11Z</time>
      </trkpt>
      <trkpt lat="37.16888" lon="-8.87933">
        <ele>70</ele>
        <time>2010-01-01T02:13:29Z</time>
      </trkpt>
      <trkpt lat="37.16929" lon="-8.87967">
        <ele>70</ele>
        <time>2010-01-01T02:13:49Z</time>
      </trkpt>
      <trkpt lat="37.16967" lon="-8.87997">
        <ele>65</ele>
        <time>2010-01-01T02:14:07Z</time>
      </trkpt>
      <trkpt lat="37.17017" lon="-8.8803">
        <ele>65</ele>
        <time>2010-01-01T02:14:30Z</time>
      </trkpt>
      <trkpt lat="37.17076" lon="-8.88058">
        <ele>61</ele>
        <time>2010-01-01T02:14:55Z</time>
      </trkpt>
      <trkpt lat="37.17096" lon="-8.88068">
        <ele>60</ele>
        <time>2010-01-01T02:15:04Z</time>
      </trkpt>
      <trkpt lat="37.17113" lon="-8.88094">
        <ele>57</ele>
        <time>2010-01-01T02:15:15Z</time>
      </trkpt>
      <trkpt lat="37.1715" lon="-8.88168">
        <ele>55</ele>
        <time>2010-01-01T02:15:42Z</time>
      </trkpt>
      <trkpt lat="37.17187" lon="-8.88241">
        <ele>56</ele>
        <time>2010-01-01T02:16:10Z</time>
      </trkpt>
      <trkpt lat="37.17236" lon="-8.88339">
        <ele>52</ele>
        <time>2010-01-01T02:16:47Z</time>
      </trkpt>
      <trkpt lat="37.17249" lon="-8.88363">
        <ele>50</ele>
        <time>2010-01-01T02:16:56Z</time>
      </trkpt>
      <trkpt lat="37.17277" lon="-8.88399">
        <ele>53</ele>
        <time>2010-01-01T02:17:12Z</time>
      </trkpt>
      <trkpt lat="37.1735" lon="-8.88458">
        <ele>49</ele>
        <time>2010-01-01T02:17:47Z</time>
      </trkpt>
      <trkpt lat="37.17423" lon="-8.88518">
        <ele>46</ele>
        <time>2010-01-01T02:18:22Z</time>
      </trkpt>
      <trkpt lat="37.17459" lon="-8.88547">
        <ele>47</ele>
        <time>2010-01-01T02:18:39Z</time>
      </trkpt>
      <trkpt lat="37.17524" lon="-8.88595">
        <ele>47</ele>
        <time>2010-01-01T02:19:09Z</time>
      </trkpt>
      <trkpt lat="37.17563" lon="-8.88625">
        <ele>47</ele>
        <time>2010-01-01T02:19:28Z</time>
      </trkpt>
      <trkpt lat="37.17623" lon="-8.88669">
        <ele>51</ele>
        <time>2010-01-01T02:19:55Z</time>
      </trkpt>
      <trkpt lat="37.17682" lon="-8.88713">
        <ele>53</ele>
        <time>2010-01-01T02:20:23Z</time>
      </trkpt>
      <trkpt lat="37.17722" lon="-8.88743">
        <ele>55</ele>
        <time>2010-01-01T02:20:41Z</time>
      </trkpt>
      <trkpt lat="37.1775" lon="-8.88763">
        <ele>52</ele>
        <time>2010-01-01T02:20:54Z</time>
      </trkpt>
      <trkpt lat="37.17787" lon="-8.8879">
        <ele>50</ele>
        <time>2010-01-01T02:21:12Z</time>
      </trkpt>
      <trkpt lat="37.17824" lon="-8.88817">
        <ele>49</ele>
        <time>2010-01-01T02:21:29Z</time>
      </trkpt>
      <trkpt lat="37.17845" lon="-8.88839">
        <ele>49</ele>
        <time>2010-01-01T02:21:39Z</time>
      </trkpt>
      <trkpt lat="37.17895" lon="-8.88897">
        <ele>43</ele>
        <time>2010-01-01T02:22:07Z</time>
      </trkpt>
      <trkpt lat="37.17912" lon="-8.88916">
        <ele>43</ele>
        <time>2010-01-01T02:22:16Z</time>
      </trkpt>
      <trkpt lat="37.17929" lon="-8.88935">
        <ele>42</ele>
        <time>2010-01-01T02:22:25Z</time>
      </trkpt>
      <trkpt lat="37.17963" lon="-8.88989">
        <ele>41</ele>
        <time>2010-01-01T02:22:47Z</time>
      </trkpt>
      <trkpt lat="37.18042" lon="-8.89122">
        <ele>28</ele>
        <time>2010-01-01T02:23:40Z</time>
      </trkpt>
      <trkpt lat="37.18068" lon="-8.89175">
        <ele>29</ele>
        <time>2010-01-01T02:24:00Z</time>
      </trkpt>
      <trkpt lat="37.18126" lon="-8.893">
        <ele>25</ele>
        <time>2010-01-01T02:24:46Z</time>
      </trkpt>
      <trkpt lat="37.18156" lon="-8.89357">
        <ele>24</ele>
        <time>2010-01-01T02:25:08Z</time>
      </trkpt>
      <trkpt lat="37.18168" lon="-8.8938">
        <ele>21</ele>
        <time>2010-01-01T02:25:16Z</time>
      </trkpt>
      <trkpt lat="37.18171" lon="-8.894">
        <ele>22</ele>
        <time>2010-01-01T02:25:23Z</time>
      </trkpt>
      <trkpt lat="37.18126" lon="-8.8943">
        <ele>20</ele>
        <time>2010-01-01T02:25:43Z</time>
      </trkpt>
      <trkpt lat="37.18089" lon="-8.89419">
        <ele>23</ele>
        <time>2010-01-01T02:25:59Z</time>
      </trkpt>
      <trkpt lat="37.18052" lon="-8.89415">
        <ele>20</ele>
        <time>2010-01-01T02:26:13Z</time>
      </trkpt>
      <trkpt lat="37.18016" lon="-8.89393">
        <ele>18</ele>
        <time>2010-01-01T02:26:29Z</time>
      </trkpt>
      <trkpt lat="37.17949" lon="-8.8938">
        <ele>16</ele>
        <time>2010-01-01T02:26:57Z</time>
      </trkpt>
      <trkpt lat="37.17882" lon="-8.8936">
        <ele>15</ele>
        <time>2010-01-01T02:27:24Z</time>
      </trkpt>
      <trkpt lat="37.17854" lon="-8.89434">
        <ele>17</ele>
        <time>2010-01-01T02:27:50Z</time>
      </trkpt>
      <trkpt lat="37.17823" lon="-8.89475">
        <ele>21</ele>
        <time>2010-01-01T02:28:08Z</time>
      </trkpt>
      <trkpt lat="37.17751" lon="-8.89542">
        <ele>21</ele>
        <time>2010-01-01T02:28:44Z</time>
      </trkpt>
      <trkpt lat="37.17711" lon="-8.897">
        <ele>32</ele>
        <time>2010-01-01T02:29:37Z</time>
      </trkpt>
      <trkpt lat="37.17671" lon="-8.89735">
        <ele>37</ele>
        <time>2010-01-01T02:29:56Z</time>
      </trkpt>
      <trkpt lat="37.17617" lon="-8.89782">
        <ele>43</ele>
        <time>2010-01-01T02:30:23Z</time>
      </trkpt>
      <trkpt lat="37.17555" lon="-8.89865">
        <ele>46</ele>
        <time>2010-01-01T02:30:59Z</time>
      </trkpt>
      <trkpt lat="37.17519" lon="-8.89923">
        <ele>49</ele>
        <time>2010-01-01T02:31:23Z</time>
      </trkpt>
      <trkpt lat="37.17438" lon="-8.8996">
        <ele>45</ele>
        <time>2010-01-01T02:31:57Z</time>
      </trkpt>
      <trkpt lat="37.1731" lon="-8.89946">
        <ele>40</ele>
        <time>2010-01-01T02:32:48Z</time>
      </trkpt>
      <trkpt lat="37.17285" lon="-8.89949">
        <ele>39</ele>
        <time>2010-01-01T02:32:58Z</time>
      </trkpt>
      <trkpt lat="37.17149" lon="-8.8997">
        <ele>34</ele>
        <time>2010-01-01T02:33:53Z</time>
      </trkpt>
      <trkpt lat="37.17039" lon="-8.89989">
        <ele>25</ele>
        <time>2010-01-01T02:34:38Z</time>
      </trkpt>
      <trkpt lat="37.16962" lon="-8.90022">
        <ele>23</ele>
        <time>2010-01-01T02:35:10Z</time>
      </trkpt>
      <trkpt lat="37.16919" lon="-8.90062">
        <ele>23</ele>
        <time>2010-01-01T02:35:31Z</time>
      </trkpt>
      <trkpt lat="37.16916" lon="-8.90075">
        <ele>24</ele>
        <time>2010-01-01T02:35:36Z</time>
      </trkpt>
      <trkpt lat="37.16901" lon="-8.90093">
        <ele>23</ele>
        <time>2010-01-01T02:35:45Z</time>
      </trkpt>
      <trkpt lat="37.16899" lon="-8.90104">
        <ele>23</ele>
        <time>2010-01-01T02:35:48Z</time>
      </trkpt>
      <trkpt lat="37.16889" lon="-8.90134">
        <ele>22</ele>
        <time>2010-01-01T02:35:58Z</time>
      </trkpt>
      <trkpt lat="37.16889" lon="-8.9014">
        <ele>23</ele>
        <time>2010-01-01T02:36:00Z</time>
      </trkpt>
      <trkpt lat="37.16897" lon="-8.90143">
        <ele>23</ele>
        <time>2010-01-01T02:36:03Z</time>
      </trkpt>
      <trkpt lat="37.16911" lon="-8.90143">
        <ele>23</ele>
        <time>2010-01-01T02:36:09Z</time>
      </trkpt>
      <trkpt lat="37.16956" lon="-8.90172">
        <ele>27</ele>
        <time>2010-01-01T02:36:29Z</time>
      </trkpt>
      <trkpt lat="37.16996" lon="-8.90202">
        <ele>30</ele>
        <time>2010-01-01T02:36:48Z</time>
      </trkpt>
      <trkpt lat="37.17058" lon="-8.90253">
        <ele>29</ele>
        <time>2010-01-01T02:37:18Z</time>
      </trkpt>
      <trkpt lat="37.17105" lon="-8.9028">
        <ele>31</ele>
        <time>2010-01-01T02:37:38Z</time>
      </trkpt>
      <trkpt lat="37.17143" lon="-8.90298">
        <ele>36</ele>
        <time>2010-01-01T02:37:55Z</time>
      </trkpt>
      <trkpt lat="37.17174" lon="-8.90322">
        <ele>37</ele>
        <time>2010-01-01T02:38:09Z</time>
      </trkpt>
      <trkpt lat="37.17187" lon="-8.90341">
        <ele>38</ele>
        <time>2010-01-01T02:38:17Z</time>
      </trkpt>
      <trkpt lat="37.17192" lon="-8.90368">
        <ele>38</ele>
        <time>2010-01-01T02:38:26Z</time>
      </trkpt>
      <trkpt lat="37.17196" lon="-8.9042">
        <ele>40</ele>
        <time>2010-01-01T02:38:43Z</time>
      </trkpt>
      <trkpt lat="37.17201" lon="-8.90451">
        <ele>39</ele>
        <time>2010-01-01T02:38:53Z</time>
      </trkpt>
      <trkpt lat="37.1726" lon="-8.90505">
        <ele>38</ele>
        <time>2010-01-01T02:39:22Z</time>
      </trkpt>
      <trkpt lat="37.17279" lon="-8.90551">
        <ele>34</ele>
        <time>2010-01-01T02:39:39Z</time>
      </trkpt>
      <trkpt lat="37.17302" lon="-8.90605">
        <ele>33</ele>
        <time>2010-01-01T02:39:58Z</time>
      </trkpt>
      <trkpt lat="37.17314" lon="-8.90625">
        <ele>33</ele>
        <time>2010-01-01T02:40:06Z</time>
      </trkpt>
      <trkpt lat="37.17374" lon="-8.9065">
        <ele>33</ele>
        <time>2010-01-01T02:40:31Z</time>
      </trkpt>
      <trkpt lat="37.17411" lon="-8.90642">
        <ele>34</ele>
        <time>2010-01-01T02:40:46Z</time>
      </trkpt>
      <trkpt lat="37.17447" lon="-8.90639">
        <ele>37</ele>
        <time>2010-01-01T02:41:01Z</time>
      </trkpt>
      <trkpt lat="37.17465" lon="-8.90639">
        <ele>37</ele>
        <time>2010-01-01T02:41:08Z</time>
      </trkpt>
      <trkpt lat="37.17491" lon="-8.90656">
        <ele>37</ele>
        <time>2010-01-01T02:41:20Z</time>
      </trkpt>
      <trkpt lat="37.17577" lon="-8.90792">
        <ele>34</ele>
        <time>2010-01-01T02:42:15Z</time>
      </trkpt>
      <trkpt lat="37.17614" lon="-8.90881">
        <ele>38</ele>
        <time>2010-01-01T02:42:47Z</time>
      </trkpt>
      <trkpt lat="37.17621" lon="-8.90892">
        <ele>38</ele>
        <time>2010-01-01T02:42:52Z</time>
      </trkpt>
      <trkpt lat="37.17628" lon="-8.909">
        <ele>39</ele>
        <time>2010-01-01T02:42:56Z</time>
      </trkpt>
      <trkpt lat="37.17661" lon="-8.90918">
        <ele>42</ele>
        <time>2010-01-01T02:43:10Z</time>
      </trkpt>
      <trkpt lat="37.17682" lon="-8.90925">
        <ele>41</ele>
        <time>2010-01-01T02:43:18Z</time>
      </trkpt>
      <trkpt lat="37.1787" lon="-8.90872">
        <ele>31</ele>
        <time>2010-01-01T02:44:36Z</time>
      </trkpt>
      <trkpt lat="37.1798" lon="-8.90841">
        <ele>25</ele>
        <time>2010-01-01T02:45:21Z</time>
      </trkpt>
      <trkpt lat="37.17988" lon="-8.90838">
        <ele>25</ele>
        <time>2010-01-01T02:45:24Z</time>
      </trkpt>
      <trkpt lat="37.18015" lon="-8.90816">
        <ele>28</ele>
        <time>2010-01-01T02:45:37Z</time>
      </trkpt>
      <trkpt lat="37.18025" lon="-8.90801">
        <ele>29</ele>
        <time>2010-01-01T02:45:43Z</time>
      </trkpt>
      <trkpt lat="37.18058" lon="-8.90793">
        <ele>28</ele>
        <time>2010-01-01T02:45:57Z</time>
      </trkpt>
      <trkpt lat="37.18098" lon="-8.90805">
        <ele>29</ele>
        <time>2010-01-01T02:46:13Z</time>
      </trkpt>
      <trkpt lat="37.18123" lon="-8.90832">
        <ele>28</ele>
        <time>2010-01-01T02:46:26Z</time>
      </trkpt>
      <trkpt lat="37.18147" lon="-8.90867">
        <ele>28</ele>
        <time>2010-01-01T02:46:41Z</time>
      </trkpt>
      <trkpt lat="37.18182" lon="-8.90924">
        <ele>31</ele>
        <time>2010-01-01T02:47:04Z</time>
      </trkpt>
      <trkpt lat="37.18199" lon="-8.90949">
        <ele>31</ele>
        <time>2010-01-01T02:47:15Z</time>
      </trkpt>
      <trkpt lat="37.18267" lon="-8.91016">
        <ele>33</ele>
        <time>2010-01-01T02:47:49Z</time>
      </trkpt>
      <trkpt lat="37.18367" lon="-8.91093">
        <ele>35</ele>
        <time>2010-01-01T02:48:36Z</time>
      </trkpt>
      <trkpt lat="37.18453" lon="-8.91118">
        <ele>29</ele>
        <time>2010-01-01T02:49:12Z</time>
      </trkpt>
      <trkpt lat="37.18503" lon="-8.91092">
        <ele>31</ele>
        <time>2010-01-01T02:49:33Z</time>
      </trkpt>
      <trkpt lat="37.18506" lon="-8.91084">
        <ele>31</ele>
        <time>2010-01-01T02:49:36Z</time>
      </trkpt>
      <trkpt lat="37.18532" lon="-8.91005">
        <ele>31</ele>
        <time>2010-01-01T02:50:03Z</time>
      </trkpt>
      <trkpt lat="37.18552" lon="-8.90983">
        <ele>30</ele>
        <time>2010-01-01T02:50:14Z</time>
      </trkpt>
      <trkpt lat="37.1862" lon="-8.90951">
        <ele>32</ele>
        <time>2010-01-01T02:50:43Z</time>
      </trkpt>
      <trkpt lat="37.18704" lon="-8.90907">
        <ele>32</ele>
        <time>2010-01-01T02:51:19Z</time>
      </trkpt>
      <trkpt lat="37.18762" lon="-8.9088">
        <ele>31</ele>
        <time>2010-01-01T02:51:44Z</time>
      </trkpt>
      <trkpt lat="37.18916" lon="-8.90821">
        <ele>33</ele>
        <time>2010-01-01T02:52:49Z</time>
      </trkpt>
      <trkpt lat="37.18943" lon="-8.90815">
        <ele>36</ele>
        <time>2010-01-01T02:53:00Z</time>
      </trkpt>
      <trkpt lat="37.18996" lon="-8.9083">
        <ele>38</ele>
        <time>2010-01-01T02:53:21Z</time>
      </trkpt>
      <trkpt lat="37.19006" lon="-8.90836">
        <ele>38</ele>
        <time>2010-01-01T02:53:26Z</time>
      </trkpt>
      <trkpt lat="37.19071" lon="-8.90915">
        <ele>38</ele>
        <time>2010-01-01T02:54:02Z</time>
      </trkpt>
      <trkpt lat="37.19131" lon="-8.91006">
        <ele>39</ele>
        <time>2010-01-01T02:54:40Z</time>
      </trkpt>
      <trkpt lat="37.19247" lon="-8.91112">
        <ele>41</ele>
        <time>2010-01-01T02:55:37Z</time>
      </trkpt>
      <trkpt lat="37.19347" lon="-8.91261">
        <ele>41</ele>
        <time>2010-01-01T02:56:39Z</time>
      </trkpt>
      <trkpt lat="37.19414" lon="-8.91363">
        <ele>37</ele>
        <time>2010-01-01T02:57:21Z</time>
      </trkpt>
      <trkpt lat="37.19489" lon="-8.9148">
        <ele>41</ele>
        <time>2010-01-01T02:58:09Z</time>
      </trkpt>
      <trkpt lat="37.19498" lon="-8.91492">
        <ele>43</ele>
        <time>2010-01-01T02:58:14Z</time>
      </trkpt>
      <trkpt lat="37.1951" lon="-8.91518">
        <ele>42</ele>
        <time>2010-01-01T02:58:24Z</time>
      </trkpt>
      <trkpt lat="37.19551" lon="-8.91646">
        <ele>39</ele>
        <time>2010-01-01T02:59:08Z</time>
      </trkpt>
      <trkpt lat="37.19582" lon="-8.91662">
        <ele>40</ele>
        <time>2010-01-01T02:59:21Z</time>
      </trkpt>
      <trkpt lat="37.19596" lon="-8.91645">
        <ele>42</ele>
        <time>2010-01-01T02:59:29Z</time>
      </trkpt>
      <trkpt lat="37.19606" lon="-8.91618">
        <ele>42</ele>
        <time>2010-01-01T02:59:39Z</time>
      </trkpt>
      <trkpt lat="37.19613" lon="-8.91451">
        <ele>36</ele>
        <time>2010-01-01T03:00:32Z</time>
      </trkpt>
      <trkpt lat="37.19652" lon="-8.91353">
        <ele>37</ele>
        <time>2010-01-01T03:01:07Z</time>
      </trkpt>
      <trkpt lat="37.19705" lon="-8.91237">
        <ele>33</ele>
        <time>2010-01-01T03:01:49Z</time>
      </trkpt>
      <trkpt lat="37.1972" lon="-8.91201">
        <ele>33</ele>
        <time>2010-01-01T03:02:03Z</time>
      </trkpt>
      <trkpt lat="37.19742" lon="-8.91042">
        <ele>29</ele>
        <time>2010-01-01T03:02:54Z</time>
      </trkpt>
      <trkpt lat="37.19751" lon="-8.90996">
        <ele>30</ele>
        <time>2010-01-01T03:03:09Z</time>
      </trkpt>
      <trkpt lat="37.19751" lon="-8.90903">
        <ele>32</ele>
        <time>2010-01-01T03:03:39Z</time>
      </trkpt>
      <trkpt lat="37.19732" lon="-8.90839">
        <ele>34</ele>
        <time>2010-01-01T03:04:00Z</time>
      </trkpt>
      <trkpt lat="37.19678" lon="-8.90793">
        <ele>38</ele>
        <time>2010-01-01T03:04:27Z</time>
      </trkpt>
      <trkpt lat="37.19597" lon="-8.90733">
        <ele>39</ele>
        <time>2010-01-01T03:05:04Z</time>
      </trkpt>
      <trkpt lat="37.19574" lon="-8.90714">
        <ele>40</ele>
        <time>2010-01-01T03:05:15Z</time>
      </trkpt>
      <trkpt lat="37.19463" lon="-8.90628">
        <ele>39</ele>
        <time>2010-01-01T03:06:08Z</time>
      </trkpt>
      <trkpt lat="37.19322" lon="-8.90515">
        <ele>33</ele>
        <time>2010-01-01T03:07:14Z</time>
      </trkpt>
      <trkpt lat="37.193" lon="-8.90482">
        <ele>29</ele>
        <time>2010-01-01T03:07:28Z</time>
      </trkpt>
      <trkpt lat="37.19302" lon="-8.90448">
        <ele>26</ele>
        <time>2010-01-01T03:07:39Z</time>
      </trkpt>
      <trkpt lat="37.19307" lon="-8.90424">
        <ele>23</ele>
        <time>2010-01-01T03:07:47Z</time>
      </trkpt>
      <trkpt lat="37.19302" lon="-8.90401">
        <ele>19</ele>
        <time>2010-01-01T03:07:55Z</time>
      </trkpt>
      <trkpt lat="37.19262" lon="-8.90364">
        <ele>14</ele>
        <time>2010-01-01T03:08:15Z</time>
      </trkpt>
      <trkpt lat="37.19219" lon="-8.90313">
        <ele>12</ele>
        <time>2010-01-01T03:08:38Z</time>
      </trkpt>
      <trkpt lat="37.19214" lon="-8.90305">
        <ele>11</ele>
        <time>2010-01-01T03:08:41Z</time>
      </trkpt>
      <trkpt lat="37.1922" lon="-8.90255">
        <ele>8</ele>
        <time>2010-01-01T03:08:57Z</time>
      </trkpt>
      <trkpt lat="37.19235" lon="-8.90246">
        <ele>7</ele>
        <time>2010-01-01T03:09:04Z</time>
      </trkpt>
      <trkpt lat="37.19262" lon="-8.90203">
        <ele>5</ele>
        <time>2010-01-01T03:09:22Z</time>
      </trkpt>
      <trkpt lat="37.19205" lon="-8.89969">
        <ele>6</ele>
        <time>2010-01-01T03:10:40Z</time>
      </trkpt>
      <trkpt lat="37.19206" lon="-8.89957">
        <ele>6</ele>
        <time>2010-01-01T03:10:43Z</time>
      </trkpt>
      <trkpt lat="37.19236" lon="-8.89892">
        <ele>7</ele>
        <time>2010-01-01T03:11:07Z</time>
      </trkpt>
      <trkpt lat="37.19234" lon="-8.89863">
        <ele>6</ele>
        <time>2010-01-01T03:11:17Z</time>
      </trkpt>
      <trkpt lat="37.19192" lon="-8.89732">
        <ele>6</ele>
        <time>2010-01-01T03:12:02Z</time>
      </trkpt>
      <trkpt lat="37.19171" lon="-8.89648">
        <ele>5</ele>
        <time>2010-01-01T03:12:30Z</time>
      </trkpt>
      <trkpt lat="37.19147" lon="-8.89609">
        <ele>5</ele>
        <time>2010-01-01T03:12:45Z</time>
      </trkpt>
      <trkpt lat="37.19081" lon="-8.89562">
        <ele>6</ele>
        <time>2010-01-01T03:13:16Z</time>
      </trkpt>
      <trkpt lat="37.19006" lon="-8.89494">
        <ele>6</ele>
        <time>2010-01-01T03:13:53Z</time>
      </trkpt>
      <trkpt lat="37.18959" lon="-8.8944">
        <ele>7</ele>
        <time>2010-01-01T03:14:19Z</time>
      </trkpt>
      <trkpt lat="37.18927" lon="-8.89414">
        <ele>9</ele>
        <time>2010-01-01T03:14:34Z</time>
      </trkpt>
      <trkpt lat="37.18867" lon="-8.89396">
        <ele>9</ele>
        <time>2010-01-01T03:14:59Z</time>
      </trkpt>
      <trkpt lat="37.18847" lon="-8.8939">
        <ele>9</ele>
        <time>2010-01-01T03:15:07Z</time>
      </trkpt>
      <trkpt lat="37.18761" lon="-8.89358">
        <ele>9</ele>
        <time>2010-01-01T03:15:42Z</time>
      </trkpt>
      <trkpt lat="37.1874" lon="-8.89349">
        <ele>9</ele>
        <time>2010-01-01T03:15:51Z</time>
      </trkpt>
      <trkpt lat="37.18729" lon="-8.89341">
        <ele>10</ele>
        <time>2010-01-01T03:15:57Z</time>
      </trkpt>
      <trkpt lat="37.18706" lon="-8.89319">
        <ele>9</ele>
        <time>2010-01-01T03:16:08Z</time>
      </trkpt>
      <trkpt lat="37.18684" lon="-8.8929">
        <ele>8</ele>
        <time>2010-01-01T03:16:21Z</time>
      </trkpt>
      <trkpt lat="37.18846" lon="-8.89083">
        <ele>8</ele>
        <time>2010-01-01T03:17:53Z</time>
      </trkpt>
      <trkpt lat="37.18887" lon="-8.89052">
        <ele>19</ele>
        <time>2010-01-01T03:18:12Z</time>
      </trkpt>
      <trkpt lat="37.18926" lon="-8.89038">
        <ele>21</ele>
        <time>2010-01-01T03:18:29Z</time>
      </trkpt>
      <trkpt lat="37.19213" lon="-8.8899">
        <ele>12</ele>
        <time>2010-01-01T03:20:24Z</time>
      </trkpt>
      <trkpt lat="37.19311" lon="-8.88971">
        <ele>16</ele>
        <time>2010-01-01T03:21:04Z</time>
      </trkpt>
      <trkpt lat="37.19537" lon="-8.88929">
        <ele>9</ele>
        <time>2010-01-01T03:22:36Z</time>
      </trkpt>
      <trkpt lat="37.19613" lon="-8.88918">
        <ele>13</ele>
        <time>2010-01-01T03:23:06Z</time>
      </trkpt>
      <trkpt lat="37.19697" lon="-8.88896">
        <ele>13</ele>
        <time>2010-01-01T03:23:40Z</time>
      </trkpt>
      <trkpt lat="37.20069" lon="-8.887">
        <ele>19</ele>
        <time>2010-01-01T03:26:22Z</time>
      </trkpt>
      <trkpt lat="37.20087" lon="-8.88691">
        <ele>16</ele>
        <time>2010-01-01T03:26:30Z</time>
      </trkpt>
      <trkpt lat="37.20129" lon="-8.88649">
        <ele>16</ele>
        <time>2010-01-01T03:26:51Z</time>
      </trkpt>
      <trkpt lat="37.20147" lon="-8.88579">
        <ele>21</ele>
        <time>2010-01-01T03:27:15Z</time>
      </trkpt>
      <trkpt lat="37.20146" lon="-8.88462">
        <ele>17</ele>
        <time>2010-01-01T03:27:52Z</time>
      </trkpt>
      <trkpt lat="37.20265" lon="-8.88232">
        <ele>14</ele>
        <time>2010-01-01T03:29:20Z</time>
      </trkpt>
      <trkpt lat="37.20381" lon="-8.88087">
        <ele>15</ele>
        <time>2010-01-01T03:30:25Z</time>
      </trkpt>
      <trkpt lat="37.204" lon="-8.88055">
        <ele>16</ele>
        <time>2010-01-01T03:30:37Z</time>
      </trkpt>
      <trkpt lat="37.20428" lon="-8.87837">
        <ele>14</ele>
        <time>2010-01-01T03:31:48Z</time>
      </trkpt>
      <trkpt lat="37.20416" lon="-8.87811">
        <ele>12</ele>
        <time>2010-01-01T03:31:58Z</time>
      </trkpt>
      <trkpt lat="37.20448" lon="-8.878">
        <ele>10</ele>
        <time>2010-01-01T03:32:11Z</time>
      </trkpt>
      <trkpt lat="37.20466" lon="-8.87762">
        <ele>10</ele>
        <time>2010-01-01T03:32:25Z</time>
      </trkpt>
      <trkpt lat="37.20488" lon="-8.87665">
        <ele>14</ele>
        <time>2010-01-01T03:32:57Z</time>
      </trkpt>
      <trkpt lat="37.20488" lon="-8.87631">
        <ele>15</ele>
        <time>2010-01-01T03:33:08Z</time>
      </trkpt>
      <trkpt lat="37.20475" lon="-8.8759">
        <ele>17</ele>
        <time>2010-01-01T03:33:22Z</time>
      </trkpt>
      <trkpt lat="37.20477" lon="-8.87558">
        <ele>17</ele>
        <time>2010-01-01T03:33:32Z</time>
      </trkpt>
      <trkpt lat="37.20494" lon="-8.87552">
        <ele>19</ele>
        <time>2010-01-01T03:33:39Z</time>
      </trkpt>
      <trkpt lat="37.20507" lon="-8.87549">
        <ele>19</ele>
        <time>2010-01-01T03:33:45Z</time>
      </trkpt>
      <trkpt lat="37.20518" lon="-8.87541">
        <ele>20</ele>
        <time>2010-01-01T03:33:50Z</time>
      </trkpt>
      <trkpt lat="37.20542" lon="-8.87526">
        <ele>22</ele>
        <time>2010-01-01T03:34:00Z</time>
      </trkpt>
      <trkpt lat="37.20556" lon="-8.87507">
        <ele>23</ele>
        <time>2010-01-01T03:34:09Z</time>
      </trkpt>
      <trkpt lat="37.20563" lon="-8.87472">
        <ele>24</ele>
        <time>2010-01-01T03:34:20Z</time>
      </trkpt>
      <trkpt lat="37.20582" lon="-8.87425">
        <ele>24</ele>
        <time>2010-01-01T03:34:37Z</time>
      </trkpt>
      <trkpt lat="37.20597" lon="-8.87401">
        <ele>26</ele>
        <time>2010-01-01T03:34:47Z</time>
      </trkpt>
      <trkpt lat="37.20604" lon="-8.87399">
        <ele>27</ele>
        <time>2010-01-01T03:34:49Z</time>
      </trkpt>
      <trkpt lat="37.20612" lon="-8.87384">
        <ele>28</ele>
        <time>2010-01-01T03:34:55Z</time>
      </trkpt>
      <trkpt lat="37.20642" lon="-8.87303">
        <ele>22</ele>
        <time>2010-01-01T03:35:24Z</time>
      </trkpt>
      <trkpt lat="37.20647" lon="-8.87275">
        <ele>19</ele>
        <time>2010-01-01T03:35:33Z</time>
      </trkpt>
      <trkpt lat="37.20644" lon="-8.87255">
        <ele>18</ele>
        <time>2010-01-01T03:35:39Z</time>
      </trkpt>
      <trkpt lat="37.20651" lon="-8.87225">
        <ele>21</ele>
        <time>2010-01-01T03:35:49Z</time>
      </trkpt>
      <trkpt lat="37.20743" lon="-8.87112">
        <ele>23</ele>
        <time>2010-01-01T03:36:41Z</time>
      </trkpt>
      <trkpt lat="37.20848" lon="-8.86929">
        <ele>17</ele>
        <time>2010-01-01T03:37:53Z</time>
      </trkpt>
      <trkpt lat="37.20868" lon="-8.86843">
        <ele>22</ele>
        <time>2010-01-01T03:38:21Z</time>
      </trkpt>
      <trkpt lat="37.20868" lon="-8.86785">
        <ele>22</ele>
        <time>2010-01-01T03:38:40Z</time>
      </trkpt>
      <trkpt lat="37.20846" lon="-8.86683">
        <ele>21</ele>
        <time>2010-01-01T03:39:14Z</time>
      </trkpt>
      <trkpt lat="37.20865" lon="-8.86614">
        <ele>20</ele>
        <time>2010-01-01T03:39:37Z</time>
      </trkpt>
      <trkpt lat="37.20915" lon="-8.86543">
        <ele>19</ele>
        <time>2010-01-01T03:40:07Z</time>
      </trkpt>
      <trkpt lat="37.20994" lon="-8.86485">
        <ele>22</ele>
        <time>2010-01-01T03:40:44Z</time>
      </trkpt>
      <trkpt lat="37.21069" lon="-8.86447">
        <ele>21</ele>
        <time>2010-01-01T03:41:16Z</time>
      </trkpt>
      <trkpt lat="37.21121" lon="-8.86365">
        <ele>21</ele>
        <time>2010-01-01T03:41:49Z</time>
      </trkpt>
      <trkpt lat="37.21166" lon="-8.86311">
        <ele>23</ele>
        <time>2010-01-01T03:42:14Z</time>
      </trkpt>
      <trkpt lat="37.2125" lon="-8.86234">
        <ele>24</ele>
        <time>2010-01-01T03:42:56Z</time>
      </trkpt>
      <trkpt lat="37.21325" lon="-8.86195">
        <ele>24</ele>
        <time>2010-01-01T03:43:28Z</time>
      </trkpt>
      <trkpt lat="37.21335" lon="-8.86172">
        <ele>22</ele>
        <time>2010-01-01T03:43:37Z</time>
      </trkpt>
      <trkpt lat="37.21342" lon="-8.86146">
        <ele>23</ele>
        <time>2010-01-01T03:43:45Z</time>
      </trkpt>
      <trkpt lat="37.21355" lon="-8.86127">
        <ele>26</ele>
        <time>2010-01-01T03:43:53Z</time>
      </trkpt>
      <trkpt lat="37.21428" lon="-8.8612">
        <ele>26</ele>
        <time>2010-01-01T03:44:23Z</time>
      </trkpt>
      <trkpt lat="37.21438" lon="-8.86095">
        <ele>28</ele>
        <time>2010-01-01T03:44:32Z</time>
      </trkpt>
      <trkpt lat="37.21458" lon="-8.86073">
        <ele>29</ele>
        <time>2010-01-01T03:44:42Z</time>
      </trkpt>
      <trkpt lat="37.21514" lon="-8.86064">
        <ele>40</ele>
        <time>2010-01-01T03:45:05Z</time>
      </trkpt>
      <trkpt lat="37.2155" lon="-8.86041">
        <ele>46</ele>
        <time>2010-01-01T03:45:21Z</time>
      </trkpt>
      <trkpt lat="37.21619" lon="-8.85981">
        <ele>51</ele>
        <time>2010-01-01T03:45:55Z</time>
      </trkpt>
      <trkpt lat="37.21623" lon="-8.85977">
        <ele>51</ele>
        <time>2010-01-01T03:45:57Z</time>
      </trkpt>
      <trkpt lat="37.21642" lon="-8.8597">
        <ele>54</ele>
        <time>2010-01-01T03:46:05Z</time>
      </trkpt>
      <trkpt lat="37.21653" lon="-8.85964">
        <ele>55</ele>
        <time>2010-01-01T03:46:10Z</time>
      </trkpt>
      <trkpt lat="37.21672" lon="-8.85947">
        <ele>58</ele>
        <time>2010-01-01T03:46:19Z</time>
      </trkpt>
      <trkpt lat="37.21773" lon="-8.85865">
        <ele>66</ele>
        <time>2010-01-01T03:47:07Z</time>
      </trkpt>
      <trkpt lat="37.21788" lon="-8.85846">
        <ele>67</ele>
        <time>2010-01-01T03:47:16Z</time>
      </trkpt>
      <trkpt lat="37.21814" lon="-8.85822">
        <ele>72</ele>
        <time>2010-01-01T03:47:28Z</time>
      </trkpt>
      <trkpt lat="37.21887" lon="-8.85794">
        <ele>73</ele>
        <time>2010-01-01T03:47:59Z</time>
      </trkpt>
      <trkpt lat="37.21913" lon="-8.85781">
        <ele>75</ele>
        <time>2010-01-01T03:48:10Z</time>
      </trkpt>
      <trkpt lat="37.21925" lon="-8.85775">
        <ele>76</ele>
        <time>2010-01-01T03:48:16Z</time>
      </trkpt>
      <trkpt lat="37.21949" lon="-8.85773">
        <ele>77</ele>
        <time>2010-01-01T03:48:25Z</time>
      </trkpt>
      <trkpt lat="37.21999" lon="-8.85741">
        <ele>85</ele>
        <time>2010-01-01T03:48:47Z</time>
      </trkpt>
      <trkpt lat="37.22067" lon="-8.85734">
        <ele>87</ele>
        <time>2010-01-01T03:49:15Z</time>
      </trkpt>
      <trkpt lat="37.22153" lon="-8.85764">
        <ele>86</ele>
        <time>2010-01-01T03:49:51Z</time>
      </trkpt>
      <trkpt lat="37.22172" lon="-8.85759">
        <ele>84</ele>
        <time>2010-01-01T03:49:58Z</time>
      </trkpt>
      <trkpt lat="37.22183" lon="-8.85755">
        <ele>83</ele>
        <time>2010-01-01T03:50:03Z</time>
      </trkpt>
      <trkpt lat="37.22228" lon="-8.85693">
        <ele>84</ele>
        <time>2010-01-01T03:50:30Z</time>
      </trkpt>
      <trkpt lat="37.22243" lon="-8.85659">
        <ele>86</ele>
        <time>2010-01-01T03:50:42Z</time>
      </trkpt>
      <trkpt lat="37.22243" lon="-8.85644">
        <ele>86</ele>
        <time>2010-01-01T03:50:47Z</time>
      </trkpt>
      <trkpt lat="37.2226" lon="-8.85595">
        <ele>85</ele>
        <time>2010-01-01T03:51:04Z</time>
      </trkpt>
      <trkpt lat="37.22271" lon="-8.85552">
        <ele>85</ele>
        <time>2010-01-01T03:51:19Z</time>
      </trkpt>
      <trkpt lat="37.22275" lon="-8.85479">
        <ele>85</ele>
        <time>2010-01-01T03:51:42Z</time>
      </trkpt>
      <trkpt lat="37.22275" lon="-8.85442">
        <ele>86</ele>
        <time>2010-01-01T03:51:53Z</time>
      </trkpt>
      <trkpt lat="37.2229" lon="-8.85434">
        <ele>85</ele>
        <time>2010-01-01T03:52:00Z</time>
      </trkpt>
      <trkpt lat="37.22329" lon="-8.8544">
        <ele>79</ele>
        <time>2010-01-01T03:52:16Z</time>
      </trkpt>
      <trkpt lat="37.22361" lon="-8.85416">
        <ele>78</ele>
        <time>2010-01-01T03:52:31Z</time>
      </trkpt>
      <trkpt lat="37.22385" lon="-8.85384">
        <ele>79</ele>
        <time>2010-01-01T03:52:45Z</time>
      </trkpt>
      <trkpt lat="37.22413" lon="-8.85354">
        <ele>85</ele>
        <time>2010-01-01T03:52:59Z</time>
      </trkpt>
      <trkpt lat="37.22458" lon="-8.85331">
        <ele>89</ele>
        <time>2010-01-01T03:53:19Z</time>
      </trkpt>
      <trkpt lat="37.22501" lon="-8.85264">
        <ele>87</ele>
        <time>2010-01-01T03:53:46Z</time>
      </trkpt>
      <trkpt lat="37.22524" lon="-8.85215">
        <ele>88</ele>
        <time>2010-01-01T03:54:04Z</time>
      </trkpt>
      <trkpt lat="37.22537" lon="-8.85183">
        <ele>89</ele>
        <time>2010-01-01T03:54:16Z</time>
      </trkpt>
      <trkpt lat="37.2255" lon="-8.85129">
        <ele>92</ele>
        <time>2010-01-01T03:54:34Z</time>
      </trkpt>
      <trkpt lat="37.22558" lon="-8.85112">
        <ele>93</ele>
        <time>2010-01-01T03:54:40Z</time>
      </trkpt>
      <trkpt lat="37.22608" lon="-8.85062">
        <ele>96</ele>
        <time>2010-01-01T03:55:05Z</time>
      </trkpt>
      <trkpt lat="37.22636" lon="-8.85052">
        <ele>98</ele>
        <time>2010-01-01T03:55:17Z</time>
      </trkpt>
      <trkpt lat="37.22681" lon="-8.85045">
        <ele>100</ele>
        <time>2010-01-01T03:55:35Z</time>
      </trkpt>
      <trkpt lat="37.227" lon="-8.85039">
        <ele>102</ele>
        <time>2010-01-01T03:55:43Z</time>
      </trkpt>
      <trkpt lat="37.22724" lon="-8.85026">
        <ele>105</ele>
        <time>2010-01-01T03:55:54Z</time>
      </trkpt>
      <trkpt lat="37.22754" lon="-8.84998">
        <ele>107</ele>
        <time>2010-01-01T03:56:09Z</time>
      </trkpt>
      <trkpt lat="37.22792" lon="-8.84955">
        <ele>111</ele>
        <time>2010-01-01T03:56:29Z</time>
      </trkpt>
      <trkpt lat="37.22801" lon="-8.84938">
        <ele>111</ele>
        <time>2010-01-01T03:56:36Z</time>
      </trkpt>
      <trkpt lat="37.22807" lon="-8.84891">
        <ele>113</ele>
        <time>2010-01-01T03:56:51Z</time>
      </trkpt>
      <trkpt lat="37.22807" lon="-8.84874">
        <ele>113</ele>
        <time>2010-01-01T03:56:56Z</time>
      </trkpt>
      <trkpt lat="37.22833" lon="-8.84887">
        <ele>117</ele>
        <time>2010-01-01T03:57:08Z</time>
      </trkpt>
      <trkpt lat="37.22842" lon="-8.84899">
        <ele>117</ele>
        <time>2010-01-01T03:57:13Z</time>
      </trkpt>
      <trkpt lat="37.22848" lon="-8.84912">
        <ele>116</ele>
        <time>2010-01-01T03:57:18Z</time>
      </trkpt>
      <trkpt lat="37.2285" lon="-8.84919">
        <ele>116</ele>
        <time>2010-01-01T03:57:20Z</time>
      </trkpt>
      <trkpt lat="37.22863" lon="-8.84917">
        <ele>118</ele>
        <time>2010-01-01T03:57:25Z</time>
      </trkpt>
      <trkpt lat="37.2287" lon="-8.84895">
        <ele>119</ele>
        <time>2010-01-01T03:57:32Z</time>
      </trkpt>
      <trkpt lat="37.22891" lon="-8.84854">
        <ele>122</ele>
        <time>2010-01-01T03:57:48Z</time>
      </trkpt>
      <trkpt lat="37.22932" lon="-8.84824">
        <ele>125</ele>
        <time>2010-01-01T03:58:07Z</time>
      </trkpt>
      <trkpt lat="37.22962" lon="-8.84818">
        <ele>127</ele>
        <time>2010-01-01T03:58:19Z</time>
      </trkpt>
      <trkpt lat="37.22988" lon="-8.8482">
        <ele>130</ele>
        <time>2010-01-01T03:58:29Z</time>
      </trkpt>
      <trkpt lat="37.23001" lon="-8.84818">
        <ele>132</ele>
        <time>2010-01-01T03:58:35Z</time>
      </trkpt>
      <trkpt lat="37.23022" lon="-8.84809">
        <ele>135</ele>
        <time>2010-01-01T03:58:44Z</time>
      </trkpt>
      <trkpt lat="37.23063" lon="-8.84794">
        <ele>137</ele>
        <time>2010-01-01T03:59:01Z</time>
      </trkpt>
      <trkpt lat="37.23097" lon="-8.84775">
        <ele>139</ele>
        <time>2010-01-01T03:59:16Z</time>
      </trkpt>
      <trkpt lat="37.23119" lon="-8.84766">
        <ele>140</ele>
        <time>2010-01-01T03:59:25Z</time>
      </trkpt>
      <trkpt lat="37.23187" lon="-8.84758">
        <ele>140</ele>
        <time>2010-01-01T03:59:52Z</time>
      </trkpt>
      <trkpt lat="37.23211" lon="-8.84762">
        <ele>138</ele>
        <time>2010-01-01T04:00:02Z</time>
      </trkpt>
      <trkpt lat="37.2329" lon="-8.84805">
        <ele>140</ele>
        <time>2010-01-01T04:00:37Z</time>
      </trkpt>
      <trkpt lat="37.23337" lon="-8.84816">
        <ele>144</ele>
        <time>2010-01-01T04:00:56Z</time>
      </trkpt>
      <trkpt lat="37.23395" lon="-8.8479">
        <ele>144</ele>
        <time>2010-01-01T04:01:20Z</time>
      </trkpt>
      <trkpt lat="37.2341" lon="-8.84777">
        <ele>144</ele>
        <time>2010-01-01T04:01:28Z</time>
      </trkpt>
      <trkpt lat="37.23423" lon="-8.84758">
        <ele>144</ele>
        <time>2010-01-01T04:01:36Z</time>
      </trkpt>
      <trkpt lat="37.23449" lon="-8.84683">
        <ele>145</ele>
        <time>2010-01-01T04:02:02Z</time>
      </trkpt>
      <trkpt lat="37.23464" lon="-8.84659">
        <ele>143</ele>
        <time>2010-01-01T04:02:11Z</time>
      </trkpt>
      <trkpt lat="37.23498" lon="-8.84633">
        <ele>140</ele>
        <time>2010-01-01T04:02:27Z</time>
      </trkpt>
      <trkpt lat="37.23533" lon="-8.84627">
        <ele>141</ele>
        <time>2010-01-01T04:02:41Z</time>
      </trkpt>
      <trkpt lat="37.23608" lon="-8.84588">
        <ele>143</ele>
        <time>2010-01-01T04:03:14Z</time>
      </trkpt>
      <trkpt lat="37.23631" lon="-8.84539">
        <ele>144</ele>
        <time>2010-01-01T04:03:32Z</time>
      </trkpt>
      <trkpt lat="37.23672" lon="-8.84513">
        <ele>144</ele>
        <time>2010-01-01T04:03:50Z</time>
      </trkpt>
      <trkpt lat="37.23797" lon="-8.84537">
        <ele>144</ele>
        <time>2010-01-01T04:04:41Z</time>
      </trkpt>
      <trkpt lat="37.23805" lon="-8.84537">
        <ele>144</ele>
        <time>2010-01-01T04:04:44Z</time>
      </trkpt>
      <trkpt lat="37.23831" lon="-8.8452">
        <ele>145</ele>
        <time>2010-01-01T04:04:56Z</time>
      </trkpt>
      <trkpt lat="37.23859" lon="-8.84485">
        <ele>146</ele>
        <time>2010-01-01T04:05:11Z</time>
      </trkpt>
      <trkpt lat="37.23897" lon="-8.84468">
        <ele>147</ele>
        <time>2010-01-01T04:05:28Z</time>
      </trkpt>
      <trkpt lat="37.23932" lon="-8.84481">
        <ele>146</ele>
        <time>2010-01-01T04:05:42Z</time>
      </trkpt>
      <trkpt lat="37.23975" lon="-8.8446">
        <ele>146</ele>
        <time>2010-01-01T04:06:01Z</time>
      </trkpt>
      <trkpt lat="37.23994" lon="-8.84425">
        <ele>147</ele>
        <time>2010-01-01T04:06:14Z</time>
      </trkpt>
      <trkpt lat="37.24007" lon="-8.84395">
        <ele>148</ele>
        <time>2010-01-01T04:06:25Z</time>
      </trkpt>
      <trkpt lat="37.24015" lon="-8.8435">
        <ele>146</ele>
        <time>2010-01-01T04:06:40Z</time>
      </trkpt>
      <trkpt lat="37.24018" lon="-8.84303">
        <ele>146</ele>
        <time>2010-01-01T04:06:55Z</time>
      </trkpt>
      <trkpt lat="37.24024" lon="-8.84262">
        <ele>146</ele>
        <time>2010-01-01T04:07:08Z</time>
      </trkpt>
      <trkpt lat="37.24052" lon="-8.84208">
        <ele>142</ele>
        <time>2010-01-01T04:07:28Z</time>
      </trkpt>
      <trkpt lat="37.24078" lon="-8.84161">
        <ele>144</ele>
        <time>2010-01-01T04:07:47Z</time>
      </trkpt>
      <trkpt lat="37.24129" lon="-8.8409">
        <ele>140</ele>
        <time>2010-01-01T04:08:17Z</time>
      </trkpt>
      <trkpt lat="37.24209" lon="-8.84035">
        <ele>140</ele>
        <time>2010-01-01T04:08:54Z</time>
      </trkpt>
      <trkpt lat="37.24262" lon="-8.84024">
        <ele>140</ele>
        <time>2010-01-01T04:09:15Z</time>
      </trkpt>
      <trkpt lat="37.24294" lon="-8.84024">
        <ele>141</ele>
        <time>2010-01-01T04:09:28Z</time>
      </trkpt>
      <trkpt lat="37.24348" lon="-8.84011">
        <ele>140</ele>
        <time>2010-01-01T04:09:50Z</time>
      </trkpt>
      <trkpt lat="37.24389" lon="-8.83996">
        <ele>141</ele>
        <time>2010-01-01T04:10:07Z</time>
      </trkpt>
      <trkpt lat="37.24408" lon="-8.83985">
        <ele>142</ele>
        <time>2010-01-01T04:10:16Z</time>
      </trkpt>
      <trkpt lat="37.24428" lon="-8.83968">
        <ele>141</ele>
        <time>2010-01-01T04:10:25Z</time>
      </trkpt>
      <trkpt lat="37.24451" lon="-8.8394">
        <ele>139</ele>
        <time>2010-01-01T04:10:38Z</time>
      </trkpt>
      <trkpt lat="37.24494" lon="-8.83893">
        <ele>137</ele>
        <time>2010-01-01T04:11:01Z</time>
      </trkpt>
      <trkpt lat="37.24539" lon="-8.8385">
        <ele>140</ele>
        <time>2010-01-01T04:11:24Z</time>
      </trkpt>
      <trkpt lat="37.24556" lon="-8.83824">
        <ele>141</ele>
        <time>2010-01-01T04:11:34Z</time>
      </trkpt>
      <trkpt lat="37.24576" lon="-8.83762">
        <ele>137</ele>
        <time>2010-01-01T04:11:56Z</time>
      </trkpt>
      <trkpt lat="37.24584" lon="-8.83706">
        <ele>134</ele>
        <time>2010-01-01T04:12:14Z</time>
      </trkpt>
      <trkpt lat="37.24588" lon="-8.83687">
        <ele>134</ele>
        <time>2010-01-01T04:12:20Z</time>
      </trkpt>
      <trkpt lat="37.2459" lon="-8.83657">
        <ele>134</ele>
        <time>2010-01-01T04:12:30Z</time>
      </trkpt>
      <trkpt lat="37.24595" lon="-8.83631">
        <ele>134</ele>
        <time>2010-01-01T04:12:38Z</time>
      </trkpt>
      <trkpt lat="37.24608" lon="-8.83599">
        <ele>135</ele>
        <time>2010-01-01T04:12:50Z</time>
      </trkpt>
      <trkpt lat="37.24636" lon="-8.83573">
        <ele>136</ele>
        <time>2010-01-01T04:13:03Z</time>
      </trkpt>
      <trkpt lat="37.24655" lon="-8.83539">
        <ele>138</ele>
        <time>2010-01-01T04:13:17Z</time>
      </trkpt>
      <trkpt lat="37.2467" lon="-8.8352">
        <ele>138</ele>
        <time>2010-01-01T04:13:25Z</time>
      </trkpt>
      <trkpt lat="37.24702" lon="-8.83507">
        <ele>138</ele>
        <time>2010-01-01T04:13:39Z</time>
      </trkpt>
      <trkpt lat="37.24745" lon="-8.83524">
        <ele>138</ele>
        <time>2010-01-01T04:13:57Z</time>
      </trkpt>
      <trkpt lat="37.24801" lon="-8.83528">
        <ele>137</ele>
        <time>2010-01-01T04:14:19Z</time>
      </trkpt>
      <trkpt lat="37.24876" lon="-8.83548">
        <ele>141</ele>
        <time>2010-01-01T04:14:50Z</time>
      </trkpt>
      <trkpt lat="37.24994" lon="-8.83554">
        <ele>145</ele>
        <time>2010-01-01T04:15:37Z</time>
      </trkpt>
      <trkpt lat="37.25035" lon="-8.83563">
        <ele>147</ele>
        <time>2010-01-01T04:15:54Z</time>
      </trkpt>
      <trkpt lat="37.25093" lon="-8.83554">
        <ele>147</ele>
        <time>2010-01-01T04:16:17Z</time>
      </trkpt>
      <trkpt lat="37.25144" lon="-8.83552">
        <ele>148</ele>
        <time>2010-01-01T04:16:38Z</time>
      </trkpt>
      <trkpt lat="37.25221" lon="-8.83563">
        <ele>150</ele>
        <time>2010-01-01T04:17:09Z</time>
      </trkpt>
      <trkpt lat="37.25256" lon="-8.83554">
        <ele>147</ele>
        <time>2010-01-01T04:17:23Z</time>
      </trkpt>
      <trkpt lat="37.25307" lon="-8.83539">
        <ele>147</ele>
        <time>2010-01-01T04:17:44Z</time>
      </trkpt>
      <trkpt lat="37.254" lon="-8.835">
        <ele>151</ele>
        <time>2010-01-01T04:18:23Z</time>
      </trkpt>
      <trkpt lat="37.25421" lon="-8.83481">
        <ele>150</ele>
        <time>2010-01-01T04:18:34Z</time>
      </trkpt>
      <trkpt lat="37.25453" lon="-8.83457">
        <ele>149</ele>
        <time>2010-01-01T04:18:48Z</time>
      </trkpt>
      <trkpt lat="37.25488" lon="-8.8344">
        <ele>150</ele>
        <time>2010-01-01T04:19:03Z</time>
      </trkpt>
      <trkpt lat="37.25505" lon="-8.8343">
        <ele>152</ele>
        <time>2010-01-01T04:19:11Z</time>
      </trkpt>
      <trkpt lat="37.25541" lon="-8.83417">
        <ele>155</ele>
        <time>2010-01-01T04:19:26Z</time>
      </trkpt>
      <trkpt lat="37.25586" lon="-8.83387">
        <ele>155</ele>
        <time>2010-01-01T04:19:47Z</time>
      </trkpt>
      <trkpt lat="37.25651" lon="-8.83337">
        <ele>155</ele>
        <time>2010-01-01T04:20:17Z</time>
      </trkpt>
      <trkpt lat="37.25689" lon="-8.83322">
        <ele>155</ele>
        <time>2010-01-01T04:20:33Z</time>
      </trkpt>
      <trkpt lat="37.25739" lon="-8.83299">
        <ele>156</ele>
        <time>2010-01-01T04:20:54Z</time>
      </trkpt>
      <trkpt lat="37.2579" lon="-8.83284">
        <ele>156</ele>
        <time>2010-01-01T04:21:15Z</time>
      </trkpt>
      <trkpt lat="37.25839" lon="-8.83245">
        <ele>157</ele>
        <time>2010-01-01T04:21:39Z</time>
      </trkpt>
      <trkpt lat="37.25897" lon="-8.83181">
        <ele>156</ele>
        <time>2010-01-01T04:22:09Z</time>
      </trkpt>
      <trkpt lat="37.2591" lon="-8.83144">
        <ele>156</ele>
        <time>2010-01-01T04:22:22Z</time>
      </trkpt>
      <trkpt lat="37.25925" lon="-8.83078">
        <ele>157</ele>
        <time>2010-01-01T04:22:44Z</time>
      </trkpt>
      <trkpt lat="37.25929" lon="-8.83005">
        <ele>156</ele>
        <time>2010-01-01T04:23:08Z</time>
      </trkpt>
      <trkpt lat="37.25936" lon="-8.82966">
        <ele>156</ele>
        <time>2010-01-01T04:23:20Z</time>
      </trkpt>
      <trkpt lat="37.25966" lon="-8.82889">
        <ele>159</ele>
        <time>2010-01-01T04:23:47Z</time>
      </trkpt>
      <trkpt lat="37.26009" lon="-8.82816">
        <ele>161</ele>
        <time>2010-01-01T04:24:16Z</time>
      </trkpt>
      <trkpt lat="37.2603" lon="-8.82754">
        <ele>161</ele>
        <time>2010-01-01T04:24:38Z</time>
      </trkpt>
      <trkpt lat="37.26054" lon="-8.82711">
        <ele>160</ele>
        <time>2010-01-01T04:24:55Z</time>
      </trkpt>
      <trkpt lat="37.26101" lon="-8.82672">
        <ele>158</ele>
        <time>2010-01-01T04:25:17Z</time>
      </trkpt>
      <trkpt lat="37.2615" lon="-8.82653">
        <ele>157</ele>
        <time>2010-01-01T04:25:38Z</time>
      </trkpt>
      <trkpt lat="37.26178" lon="-8.82642">
        <ele>156</ele>
        <time>2010-01-01T04:25:50Z</time>
      </trkpt>
      <trkpt lat="37.26211" lon="-8.82625">
        <ele>157</ele>
        <time>2010-01-01T04:26:04Z</time>
      </trkpt>
      <trkpt lat="37.26238" lon="-8.82601">
        <ele>158</ele>
        <time>2010-01-01T04:26:17Z</time>
      </trkpt>
      <trkpt lat="37.26329" lon="-8.8256">
        <ele>160</ele>
        <time>2010-01-01T04:26:55Z</time>
      </trkpt>
      <trkpt lat="37.26384" lon="-8.82522">
        <ele>151</ele>
        <time>2010-01-01T04:27:21Z</time>
      </trkpt>
      <trkpt lat="37.26412" lon="-8.82511">
        <ele>149</ele>
        <time>2010-01-01T04:27:32Z</time>
      </trkpt>
      <trkpt lat="37.26438" lon="-8.82511">
        <ele>147</ele>
        <time>2010-01-01T04:27:43Z</time>
      </trkpt>
      <trkpt lat="37.26464" lon="-8.82515">
        <ele>145</ele>
        <time>2010-01-01T04:27:53Z</time>
      </trkpt>
      <trkpt lat="37.26483" lon="-8.8252">
        <ele>145</ele>
        <time>2010-01-01T04:28:01Z</time>
      </trkpt>
      <trkpt lat="37.26505" lon="-8.82528">
        <ele>146</ele>
        <time>2010-01-01T04:28:10Z</time>
      </trkpt>
      <trkpt lat="37.26511" lon="-8.82528">
        <ele>146</ele>
        <time>2010-01-01T04:28:13Z</time>
      </trkpt>
      <trkpt lat="37.26517" lon="-8.82513">
        <ele>146</ele>
        <time>2010-01-01T04:28:18Z</time>
      </trkpt>
      <trkpt lat="37.26511" lon="-8.82505">
        <ele>146</ele>
        <time>2010-01-01T04:28:22Z</time>
      </trkpt>
      <trkpt lat="37.26505" lon="-8.82483">
        <ele>146</ele>
        <time>2010-01-01T04:28:29Z</time>
      </trkpt>
      <trkpt lat="37.26513" lon="-8.82458">
        <ele>147</ele>
        <time>2010-01-01T04:28:38Z</time>
      </trkpt>
      <trkpt lat="37.26522" lon="-8.82447">
        <ele>148</ele>
        <time>2010-01-01T04:28:43Z</time>
      </trkpt>
      <trkpt lat="37.2655" lon="-8.82421">
        <ele>150</ele>
        <time>2010-01-01T04:28:57Z</time>
      </trkpt>
      <trkpt lat="37.26582" lon="-8.82406">
        <ele>152</ele>
        <time>2010-01-01T04:29:10Z</time>
      </trkpt>
      <trkpt lat="37.26616" lon="-8.82387">
        <ele>155</ele>
        <time>2010-01-01T04:29:25Z</time>
      </trkpt>
      <trkpt lat="37.2664" lon="-8.8237">
        <ele>155</ele>
        <time>2010-01-01T04:29:36Z</time>
      </trkpt>
      <trkpt lat="37.26668" lon="-8.8235">
        <ele>155</ele>
        <time>2010-01-01T04:29:49Z</time>
      </trkpt>
      <trkpt lat="37.26698" lon="-8.82322">
        <ele>155</ele>
        <time>2010-01-01T04:30:04Z</time>
      </trkpt>
      <trkpt lat="37.26721" lon="-8.82301">
        <ele>154</ele>
        <time>2010-01-01T04:30:16Z</time>
      </trkpt>
      <trkpt lat="37.26738" lon="-8.82288">
        <ele>153</ele>
        <time>2010-01-01T04:30:24Z</time>
      </trkpt>
      <trkpt lat="37.26777" lon="-8.82269">
        <ele>152</ele>
        <time>2010-01-01T04:30:40Z</time>
      </trkpt>
      <trkpt lat="37.26803" lon="-8.82262">
        <ele>152</ele>
        <time>2010-01-01T04:30:51Z</time>
      </trkpt>
      <trkpt lat="37.26824" lon="-8.82262">
        <ele>152</ele>
        <time>2010-01-01T04:31:00Z</time>
      </trkpt>
      <trkpt lat="37.26837" lon="-8.8226">
        <ele>151</ele>
        <time>2010-01-01T04:31:05Z</time>
      </trkpt>
      <trkpt lat="37.26854" lon="-8.82252">
        <ele>151</ele>
        <time>2010-01-01T04:31:12Z</time>
      </trkpt>
      <trkpt lat="37.2688" lon="-8.82224">
        <ele>152</ele>
        <time>2010-01-01T04:31:26Z</time>
      </trkpt>
      <trkpt lat="37.26901" lon="-8.82185">
        <ele>152</ele>
        <time>2010-01-01T04:31:41Z</time>
      </trkpt>
      <trkpt lat="37.26912" lon="-8.82163">
        <ele>149</ele>
        <time>2010-01-01T04:31:49Z</time>
      </trkpt>
      <trkpt lat="37.26929" lon="-8.82151">
        <ele>147</ele>
        <time>2010-01-01T04:31:57Z</time>
      </trkpt>
      <trkpt lat="37.26962" lon="-8.82138">
        <ele>144</ele>
        <time>2010-01-01T04:32:10Z</time>
      </trkpt>
      <trkpt lat="37.26987" lon="-8.82136">
        <ele>145</ele>
        <time>2010-01-01T04:32:21Z</time>
      </trkpt>
      <trkpt lat="37.27013" lon="-8.82144">
        <ele>147</ele>
        <time>2010-01-01T04:32:31Z</time>
      </trkpt>
      <trkpt lat="37.27041" lon="-8.82157">
        <ele>148</ele>
        <time>2010-01-01T04:32:43Z</time>
      </trkpt>
      <trkpt lat="37.27078" lon="-8.8217">
        <ele>146</ele>
        <time>2010-01-01T04:32:58Z</time>
      </trkpt>
      <trkpt lat="37.27101" lon="-8.82174">
        <ele>146</ele>
        <time>2010-01-01T04:33:08Z</time>
      </trkpt>
      <trkpt lat="37.27116" lon="-8.8217">
        <ele>145</ele>
        <time>2010-01-01T04:33:14Z</time>
      </trkpt>
      <trkpt lat="37.27133" lon="-8.82168">
        <ele>145</ele>
        <time>2010-01-01T04:33:21Z</time>
      </trkpt>
      <trkpt lat="37.27148" lon="-8.82159">
        <ele>145</ele>
        <time>2010-01-01T04:33:28Z</time>
      </trkpt>
      <trkpt lat="37.27183" lon="-8.82125">
        <ele>147</ele>
        <time>2010-01-01T04:33:45Z</time>
      </trkpt>
      <trkpt lat="37.272" lon="-8.82121">
        <ele>147</ele>
        <time>2010-01-01T04:33:52Z</time>
      </trkpt>
      <trkpt lat="37.27249" lon="-8.82125">
        <ele>145</ele>
        <time>2010-01-01T04:34:12Z</time>
      </trkpt>
      <trkpt lat="37.27279" lon="-8.82127">
        <ele>143</ele>
        <time>2010-01-01T04:34:24Z</time>
      </trkpt>
      <trkpt lat="37.27322" lon="-8.82127">
        <ele>142</ele>
        <time>2010-01-01T04:34:41Z</time>
      </trkpt>
      <trkpt lat="37.27384" lon="-8.82161">
        <ele>142</ele>
        <time>2010-01-01T04:35:08Z</time>
      </trkpt>
      <trkpt lat="37.27414" lon="-8.82181">
        <ele>142</ele>
        <time>2010-01-01T04:35:22Z</time>
      </trkpt>
      <trkpt lat="37.27436" lon="-8.82198">
        <ele>142</ele>
        <time>2010-01-01T04:35:32Z</time>
      </trkpt>
      <trkpt lat="37.27481" lon="-8.8223">
        <ele>143</ele>
        <time>2010-01-01T04:35:53Z</time>
      </trkpt>
      <trkpt lat="37.27517" lon="-8.82258">
        <ele>145</ele>
        <time>2010-01-01T04:36:10Z</time>
      </trkpt>
      <trkpt lat="37.27547" lon="-8.82279">
        <ele>146</ele>
        <time>2010-01-01T04:36:24Z</time>
      </trkpt>
      <trkpt lat="37.27569" lon="-8.82294">
        <ele>145</ele>
        <time>2010-01-01T04:36:34Z</time>
      </trkpt>
      <trkpt lat="37.2758" lon="-8.82307">
        <ele>144</ele>
        <time>2010-01-01T04:36:40Z</time>
      </trkpt>
      <trkpt lat="37.27588" lon="-8.82324">
        <ele>142</ele>
        <time>2010-01-01T04:36:46Z</time>
      </trkpt>
      <trkpt lat="37.27599" lon="-8.82333">
        <ele>140</ele>
        <time>2010-01-01T04:36:51Z</time>
      </trkpt>
      <trkpt lat="37.27629" lon="-8.82333">
        <ele>137</ele>
        <time>2010-01-01T04:37:03Z</time>
      </trkpt>
      <trkpt lat="37.27652" lon="-8.82335">
        <ele>135</ele>
        <time>2010-01-01T04:37:13Z</time>
      </trkpt>
      <trkpt lat="37.2768" lon="-8.82344">
        <ele>135</ele>
        <time>2010-01-01T04:37:24Z</time>
      </trkpt>
      <trkpt lat="37.27702" lon="-8.82357">
        <ele>136</ele>
        <time>2010-01-01T04:37:34Z</time>
      </trkpt>
      <trkpt lat="37.27723" lon="-8.82359">
        <ele>135</ele>
        <time>2010-01-01T04:37:42Z</time>
      </trkpt>
      <trkpt lat="37.27755" lon="-8.82359">
        <ele>136</ele>
        <time>2010-01-01T04:37:55Z</time>
      </trkpt>
      <trkpt lat="37.27818" lon="-8.82357">
        <ele>138</ele>
        <time>2010-01-01T04:38:20Z</time>
      </trkpt>
      <trkpt lat="37.27826" lon="-8.82357">
        <ele>139</ele>
        <time>2010-01-01T04:38:23Z</time>
      </trkpt>
      <trkpt lat="37.27874" lon="-8.82346">
        <ele>141</ele>
        <time>2010-01-01T04:38:43Z</time>
      </trkpt>
      <trkpt lat="37.27925" lon="-8.82346">
        <ele>143</ele>
        <time>2010-01-01T04:39:03Z</time>
      </trkpt>
      <trkpt lat="37.27953" lon="-8.82357">
        <ele>144</ele>
        <time>2010-01-01T04:39:15Z</time>
      </trkpt>
      <trkpt lat="37.27989" lon="-8.82363">
        <ele>144</ele>
        <time>2010-01-01T04:39:30Z</time>
      </trkpt>
      <trkpt lat="37.28054" lon="-8.82361">
        <ele>146</ele>
        <time>2010-01-01T04:39:55Z</time>
      </trkpt>
      <trkpt lat="37.28114" lon="-8.82365">
        <ele>145</ele>
        <time>2010-01-01T04:40:20Z</time>
      </trkpt>
      <trkpt lat="37.28165" lon="-8.82372">
        <ele>145</ele>
        <time>2010-01-01T04:40:40Z</time>
      </trkpt>
      <trkpt lat="37.28187" lon="-8.8237">
        <ele>146</ele>
        <time>2010-01-01T04:40:49Z</time>
      </trkpt>
      <trkpt lat="37.28238" lon="-8.82354">
        <ele>146</ele>
        <time>2010-01-01T04:41:10Z</time>
      </trkpt>
      <trkpt lat="37.28266" lon="-8.82346">
        <ele>146</ele>
        <time>2010-01-01T04:41:22Z</time>
      </trkpt>
      <trkpt lat="37.2835" lon="-8.82305">
        <ele>146</ele>
        <time>2010-01-01T04:41:57Z</time>
      </trkpt>
      <trkpt lat="37.28434" lon="-8.82254">
        <ele>144</ele>
        <time>2010-01-01T04:42:35Z</time>
      </trkpt>
      <trkpt lat="37.28462" lon="-8.82243">
        <ele>144</ele>
        <time>2010-01-01T04:42:46Z</time>
      </trkpt>
      <trkpt lat="37.2847" lon="-8.82234">
        <ele>143</ele>
        <time>2010-01-01T04:42:51Z</time>
      </trkpt>
      <trkpt lat="37.28547" lon="-8.82183">
        <ele>142</ele>
        <time>2010-01-01T04:43:26Z</time>
      </trkpt>
      <trkpt lat="37.28586" lon="-8.82159">
        <ele>143</ele>
        <time>2010-01-01T04:43:43Z</time>
      </trkpt>
      <trkpt lat="37.28618" lon="-8.82138">
        <ele>143</ele>
        <time>2010-01-01T04:43:58Z</time>
      </trkpt>
      <trkpt lat="37.28637" lon="-8.82118">
        <ele>143</ele>
        <time>2010-01-01T04:44:08Z</time>
      </trkpt>
      <trkpt lat="37.2868" lon="-8.82069">
        <ele>142</ele>
        <time>2010-01-01T04:44:31Z</time>
      </trkpt>
      <trkpt lat="37.28715" lon="-8.82016">
        <ele>142</ele>
        <time>2010-01-01T04:44:53Z</time>
      </trkpt>
      <trkpt lat="37.28745" lon="-8.81966">
        <ele>141</ele>
        <time>2010-01-01T04:45:12Z</time>
      </trkpt>
      <trkpt lat="37.28788" lon="-8.81923">
        <ele>139</ele>
        <time>2010-01-01T04:45:34Z</time>
      </trkpt>
      <trkpt lat="37.28824" lon="-8.81902">
        <ele>139</ele>
        <time>2010-01-01T04:45:51Z</time>
      </trkpt>
      <trkpt lat="37.28865" lon="-8.81885">
        <ele>140</ele>
        <time>2010-01-01T04:46:08Z</time>
      </trkpt>
      <trkpt lat="37.28912" lon="-8.81857">
        <ele>140</ele>
        <time>2010-01-01T04:46:29Z</time>
      </trkpt>
      <trkpt lat="37.2897" lon="-8.81809">
        <ele>142</ele>
        <time>2010-01-01T04:46:56Z</time>
      </trkpt>
      <trkpt lat="37.29037" lon="-8.81756">
        <ele>143</ele>
        <time>2010-01-01T04:47:28Z</time>
      </trkpt>
      <trkpt lat="37.2908" lon="-8.81715">
        <ele>142</ele>
        <time>2010-01-01T04:47:49Z</time>
      </trkpt>
      <trkpt lat="37.29127" lon="-8.81687">
        <ele>144</ele>
        <time>2010-01-01T04:48:10Z</time>
      </trkpt>
      <trkpt lat="37.29187" lon="-8.81642">
        <ele>146</ele>
        <time>2010-01-01T04:48:38Z</time>
      </trkpt>
      <trkpt lat="37.29223" lon="-8.81614">
        <ele>146</ele>
        <time>2010-01-01T04:48:55Z</time>
      </trkpt>
      <trkpt lat="37.29245" lon="-8.81593">
        <ele>143</ele>
        <time>2010-01-01T04:49:06Z</time>
      </trkpt>
      <trkpt lat="37.29258" lon="-8.81571">
        <ele>142</ele>
        <time>2010-01-01T04:49:15Z</time>
      </trkpt>
      <trkpt lat="37.29279" lon="-8.81546">
        <ele>140</ele>
        <time>2010-01-01T04:49:27Z</time>
      </trkpt>
      <trkpt lat="37.29298" lon="-8.81526">
        <ele>138</ele>
        <time>2010-01-01T04:49:37Z</time>
      </trkpt>
      <trkpt lat="37.29335" lon="-8.81507">
        <ele>138</ele>
        <time>2010-01-01T04:49:53Z</time>
      </trkpt>
      <trkpt lat="37.2938" lon="-8.81494">
        <ele>138</ele>
        <time>2010-01-01T04:50:11Z</time>
      </trkpt>
      <trkpt lat="37.29406" lon="-8.81488">
        <ele>138</ele>
        <time>2010-01-01T04:50:22Z</time>
      </trkpt>
      <trkpt lat="37.29422" lon="-8.81474">
        <ele>138</ele>
        <time>2010-01-01T04:50:30Z</time>
      </trkpt>
      <trkpt lat="37.29445" lon="-8.81443">
        <ele>137</ele>
        <time>2010-01-01T04:50:43Z</time>
      </trkpt>
      <trkpt lat="37.29487" lon="-8.81397">
        <ele>133</ele>
        <time>2010-01-01T04:51:05Z</time>
      </trkpt>
      <trkpt lat="37.29519" lon="-8.8137">
        <ele>134</ele>
        <time>2010-01-01T04:51:20Z</time>
      </trkpt>
      <trkpt lat="37.29532" lon="-8.81372">
        <ele>134</ele>
        <time>2010-01-01T04:51:26Z</time>
      </trkpt>
      <trkpt lat="37.29536" lon="-8.8135">
        <ele>134</ele>
        <time>2010-01-01T04:51:33Z</time>
      </trkpt>
      <trkpt lat="37.29555" lon="-8.81333">
        <ele>135</ele>
        <time>2010-01-01T04:51:42Z</time>
      </trkpt>
      <trkpt lat="37.29586" lon="-8.81311">
        <ele>135</ele>
        <time>2010-01-01T04:51:57Z</time>
      </trkpt>
      <trkpt lat="37.2962" lon="-8.81291">
        <ele>133</ele>
        <time>2010-01-01T04:52:12Z</time>
      </trkpt>
      <trkpt lat="37.29652" lon="-8.81281">
        <ele>132</ele>
        <time>2010-01-01T04:52:25Z</time>
      </trkpt>
      <trkpt lat="37.29716" lon="-8.8127">
        <ele>133</ele>
        <time>2010-01-01T04:52:51Z</time>
      </trkpt>
      <trkpt lat="37.29759" lon="-8.81263">
        <ele>137</ele>
        <time>2010-01-01T04:53:08Z</time>
      </trkpt>
      <trkpt lat="37.2978" lon="-8.8126">
        <ele>139</ele>
        <time>2010-01-01T04:53:17Z</time>
      </trkpt>
      <trkpt lat="37.29813" lon="-8.8126">
        <ele>139</ele>
        <time>2010-01-01T04:53:30Z</time>
      </trkpt>
      <trkpt lat="37.29854" lon="-8.81265">
        <ele>139</ele>
        <time>2010-01-01T04:53:46Z</time>
      </trkpt>
      <trkpt lat="37.29874" lon="-8.81268">
        <ele>139</ele>
        <time>2010-01-01T04:53:54Z</time>
      </trkpt>
      <trkpt lat="37.29889" lon="-8.81264">
        <ele>138</ele>
        <time>2010-01-01T04:54:00Z</time>
      </trkpt>
      <trkpt lat="37.29947" lon="-8.81238">
        <ele>137</ele>
        <time>2010-01-01T04:54:25Z</time>
      </trkpt>
      <trkpt lat="37.30026" lon="-8.81198">
        <ele>132</ele>
        <time>2010-01-01T04:54:59Z</time>
      </trkpt>
      <trkpt lat="37.3012" lon="-8.81207">
        <ele>131</ele>
        <time>2010-01-01T04:55:37Z</time>
      </trkpt>
      <trkpt lat="37.30167" lon="-8.81212">
        <ele>128</ele>
        <time>2010-01-01T04:55:56Z</time>
      </trkpt>
      <trkpt lat="37.30213" lon="-8.81216">
        <ele>127</ele>
        <time>2010-01-01T04:56:14Z</time>
      </trkpt>
      <trkpt lat="37.30261" lon="-8.81219">
        <ele>127</ele>
        <time>2010-01-01T04:56:34Z</time>
      </trkpt>
      <trkpt lat="37.30331" lon="-8.81221">
        <ele>131</ele>
        <time>2010-01-01T04:57:02Z</time>
      </trkpt>
      <trkpt lat="37.30378" lon="-8.81221">
        <ele>133</ele>
        <time>2010-01-01T04:57:20Z</time>
      </trkpt>
      <trkpt lat="37.30425" lon="-8.81222">
        <ele>131</ele>
        <time>2010-01-01T04:57:39Z</time>
      </trkpt>
      <trkpt lat="37.30472" lon="-8.81223">
        <ele>129</ele>
        <time>2010-01-01T04:57:58Z</time>
      </trkpt>
      <trkpt lat="37.30502" lon="-8.81221">
        <ele>128</ele>
        <time>2010-01-01T04:58:10Z</time>
      </trkpt>
      <trkpt lat="37.30547" lon="-8.81217">
        <ele>128</ele>
        <time>2010-01-01T04:58:28Z</time>
      </trkpt>
      <trkpt lat="37.30593" lon="-8.81213">
        <ele>130</ele>
        <time>2010-01-01T04:58:47Z</time>
      </trkpt>
      <trkpt lat="37.30639" lon="-8.81209">
        <ele>131</ele>
        <time>2010-01-01T04:59:05Z</time>
      </trkpt>
      <trkpt lat="37.30661" lon="-8.81207">
        <ele>128</ele>
        <time>2010-01-01T04:59:14Z</time>
      </trkpt>
      <trkpt lat="37.30707" lon="-8.81203">
        <ele>123</ele>
        <time>2010-01-01T04:59:32Z</time>
      </trkpt>
      <trkpt lat="37.3073" lon="-8.81201">
        <ele>121</ele>
        <time>2010-01-01T04:59:41Z</time>
      </trkpt>
      <trkpt lat="37.30759" lon="-8.81203">
        <ele>121</ele>
        <time>2010-01-01T04:59:53Z</time>
      </trkpt>
      <trkpt lat="37.30781" lon="-8.81206">
        <ele>121</ele>
        <time>2010-01-01T05:00:02Z</time>
      </trkpt>
      <trkpt lat="37.30804" lon="-8.8121">
        <ele>122</ele>
        <time>2010-01-01T05:00:11Z</time>
      </trkpt>
      <trkpt lat="37.30826" lon="-8.81213">
        <ele>123</ele>
        <time>2010-01-01T05:00:20Z</time>
      </trkpt>
      <trkpt lat="37.30849" lon="-8.81216">
        <ele>123</ele>
        <time>2010-01-01T05:00:29Z</time>
      </trkpt>
      <trkpt lat="37.30883" lon="-8.81221">
        <ele>121</ele>
        <time>2010-01-01T05:00:43Z</time>
      </trkpt>
      <trkpt lat="37.30917" lon="-8.81226">
        <ele>118</ele>
        <time>2010-01-01T05:00:57Z</time>
      </trkpt>
      <trkpt lat="37.30935" lon="-8.81211">
        <ele>117</ele>
        <time>2010-01-01T05:01:05Z</time>
      </trkpt>
      <trkpt lat="37.30941" lon="-8.81174">
        <ele>116</ele>
        <time>2010-01-01T05:01:17Z</time>
      </trkpt>
      <trkpt lat="37.30951" lon="-8.81126">
        <ele>115</ele>
        <time>2010-01-01T05:01:33Z</time>
      </trkpt>
      <trkpt lat="37.30965" lon="-8.81071">
        <ele>108</ele>
        <time>2010-01-01T05:01:52Z</time>
      </trkpt>
      <trkpt lat="37.30989" lon="-8.81051">
        <ele>104</ele>
        <time>2010-01-01T05:02:03Z</time>
      </trkpt>
      <trkpt lat="37.31007" lon="-8.81045">
        <ele>103</ele>
        <time>2010-01-01T05:02:10Z</time>
      </trkpt>
      <trkpt lat="37.31025" lon="-8.81039">
        <ele>101</ele>
        <time>2010-01-01T05:02:18Z</time>
      </trkpt>
      <trkpt lat="37.31049" lon="-8.81017">
        <ele>100</ele>
        <time>2010-01-01T05:02:30Z</time>
      </trkpt>
      <trkpt lat="37.31065" lon="-8.80999">
        <ele>99</ele>
        <time>2010-01-01T05:02:38Z</time>
      </trkpt>
      <trkpt lat="37.3108" lon="-8.8098">
        <ele>96</ele>
        <time>2010-01-01T05:02:47Z</time>
      </trkpt>
      <trkpt lat="37.31096" lon="-8.80962">
        <ele>93</ele>
        <time>2010-01-01T05:02:55Z</time>
      </trkpt>
      <trkpt lat="37.31111" lon="-8.80943">
        <ele>92</ele>
        <time>2010-01-01T05:03:04Z</time>
      </trkpt>
      <trkpt lat="37.3114" lon="-8.80899">
        <ele>86</ele>
        <time>2010-01-01T05:03:22Z</time>
      </trkpt>
      <trkpt lat="37.31148" lon="-8.80871">
        <ele>85</ele>
        <time>2010-01-01T05:03:32Z</time>
      </trkpt>
      <trkpt lat="37.31163" lon="-8.80816">
        <ele>85</ele>
        <time>2010-01-01T05:03:50Z</time>
      </trkpt>
      <trkpt lat="37.31175" lon="-8.80782">
        <ele>84</ele>
        <time>2010-01-01T05:04:02Z</time>
      </trkpt>
      <trkpt lat="37.31185" lon="-8.80758">
        <ele>85</ele>
        <time>2010-01-01T05:04:11Z</time>
      </trkpt>
      <trkpt lat="37.31194" lon="-8.80734">
        <ele>87</ele>
        <time>2010-01-01T05:04:19Z</time>
      </trkpt>
      <trkpt lat="37.31213" lon="-8.80699">
        <ele>85</ele>
        <time>2010-01-01T05:04:33Z</time>
      </trkpt>
      <trkpt lat="37.31238" lon="-8.80662">
        <ele>81</ele>
        <time>2010-01-01T05:04:48Z</time>
      </trkpt>
      <trkpt lat="37.31258" lon="-8.80631">
        <ele>78</ele>
        <time>2010-01-01T05:05:01Z</time>
      </trkpt>
      <trkpt lat="37.31269" lon="-8.80614">
        <ele>76</ele>
        <time>2010-01-01T05:05:08Z</time>
      </trkpt>
      <trkpt lat="37.31294" lon="-8.80597">
        <ele>73</ele>
        <time>2010-01-01T05:05:19Z</time>
      </trkpt>
      <trkpt lat="37.31329" lon="-8.8059">
        <ele>72</ele>
        <time>2010-01-01T05:05:33Z</time>
      </trkpt>
      <trkpt lat="37.31352" lon="-8.80595">
        <ele>70</ele>
        <time>2010-01-01T05:05:43Z</time>
      </trkpt>
      <trkpt lat="37.31398" lon="-8.80602">
        <ele>67</ele>
        <time>2010-01-01T05:06:01Z</time>
      </trkpt>
      <trkpt lat="37.31421" lon="-8.80604">
        <ele>63</ele>
        <time>2010-01-01T05:06:11Z</time>
      </trkpt>
      <trkpt lat="37.31456" lon="-8.80605">
        <ele>57</ele>
        <time>2010-01-01T05:06:24Z</time>
      </trkpt>
      <trkpt lat="37.31492" lon="-8.80604">
        <ele>50</ele>
        <time>2010-01-01T05:06:39Z</time>
      </trkpt>
      <trkpt lat="37.31511" lon="-8.80587">
        <ele>50</ele>
        <time>2010-01-01T05:06:48Z</time>
      </trkpt>
      <trkpt lat="37.31539" lon="-8.80573">
        <ele>53</ele>
        <time>2010-01-01T05:07:00Z</time>
      </trkpt>
      <trkpt lat="37.31559" lon="-8.80568">
        <ele>58</ele>
        <time>2010-01-01T05:07:08Z</time>
      </trkpt>
      <trkpt lat="37.31579" lon="-8.80564">
        <ele>64</ele>
        <time>2010-01-01T05:07:16Z</time>
      </trkpt>
      <trkpt lat="37.31607" lon="-8.80567">
        <ele>67</ele>
        <time>2010-01-01T05:07:28Z</time>
      </trkpt>
      <trkpt lat="37.31624" lon="-8.80572">
        <ele>66</ele>
        <time>2010-01-01T05:07:35Z</time>
      </trkpt>
      <trkpt lat="37.3164" lon="-8.80551">
        <ele>70</ele>
        <time>2010-01-01T05:07:44Z</time>
      </trkpt>
      <trkpt lat="37.31669" lon="-8.80508">
        <ele>71</ele>
        <time>2010-01-01T05:08:02Z</time>
      </trkpt>
      <trkpt lat="37.31695" lon="-8.80487">
        <ele>68</ele>
        <time>2010-01-01T05:08:14Z</time>
      </trkpt>
      <trkpt lat="37.31714" lon="-8.80475">
        <ele>64</ele>
        <time>2010-01-01T05:08:23Z</time>
      </trkpt>
      <trkpt lat="37.31753" lon="-8.80453">
        <ele>54</ele>
        <time>2010-01-01T05:08:40Z</time>
      </trkpt>
      <trkpt lat="37.31784" lon="-8.80445">
        <ele>51</ele>
        <time>2010-01-01T05:08:53Z</time>
      </trkpt>
      <trkpt lat="37.31823" lon="-8.80442">
        <ele>47</ele>
        <time>2010-01-01T05:09:08Z</time>
      </trkpt>
      <trkpt lat="37.31853" lon="-8.80435">
        <ele>42</ele>
        <time>2010-01-01T05:09:21Z</time>
      </trkpt>
    </trkseg>
  </trk>
</gpx>